<?xml version="1.0" encoding="UTF-8" standalone="no" ?>
<gpx xmlns="http://www.topografix.com/GPX/1/1" xmlns:xsi="http://www.w3.org/2001/XMLSchema-instance" xsi:schemaLocation="http://www.topografix.com/GPX/1/1 http://www.topografix.com/GPX/1/1/gpx.xsd" version="1.1" creator="VisuGPX - https://www.visugpx.com">
  <metadata>
    <name>Smarves Bois de Saint Pierre</name>
    <desc><![CDATA[Randonnée en boucle de 6 Km au départ du parking de la piscine des bois de Saint Pierre]]></desc>
  </metadata>
  <trk>
    <name><![CDATA[Smarves Bois de Saint Pierre_1]]></name>
    <extensions>
      <line xmlns="http://www.topografix.com/GPX/gpx_style/0/2">
        <color>0000FF</color>
        <width>4</width>
      </line>
    </extensions>
    <trkseg>
      <trkpt lat="46.50592" lon="0.36859">
        <ele>127.474</ele>
        <time>2021-12-23T14:46:19Z</time>
      </trkpt>
      <trkpt lat="46.50585" lon="0.36854">
        <ele>130.823</ele>
        <time>2021-12-23T14:47:13Z</time>
      </trkpt>
      <trkpt lat="46.50588" lon="0.36845">
        <ele>134.42</ele>
        <time>2021-12-23T14:48:35Z</time>
      </trkpt>
      <trkpt lat="46.5059" lon="0.36834">
        <ele>134.934</ele>
        <time>2021-12-23T14:48:48Z</time>
      </trkpt>
      <trkpt lat="46.50593" lon="0.36824">
        <ele>135.013</ele>
        <time>2021-12-23T14:48:54Z</time>
      </trkpt>
      <trkpt lat="46.50596" lon="0.36816">
        <ele>135.245</ele>
        <time>2021-12-23T14:48:59Z</time>
      </trkpt>
      <trkpt lat="46.50601" lon="0.36807">
        <ele>134.891</ele>
        <time>2021-12-23T14:49:05Z</time>
      </trkpt>
      <trkpt lat="46.50604" lon="0.36798">
        <ele>134.892</ele>
        <time>2021-12-23T14:49:11Z</time>
      </trkpt>
      <trkpt lat="46.50608" lon="0.36789">
        <ele>134.735</ele>
        <time>2021-12-23T14:49:17Z</time>
      </trkpt>
      <trkpt lat="46.50612" lon="0.36781">
        <ele>132.439</ele>
        <time>2021-12-23T14:49:23Z</time>
      </trkpt>
      <trkpt lat="46.50618" lon="0.36779">
        <ele>132.146</ele>
        <time>2021-12-23T14:49:30Z</time>
      </trkpt>
      <trkpt lat="46.50624" lon="0.36773">
        <ele>130.641</ele>
        <time>2021-12-23T14:49:36Z</time>
      </trkpt>
      <trkpt lat="46.50629" lon="0.36765">
        <ele>129.688</ele>
        <time>2021-12-23T14:49:45Z</time>
      </trkpt>
      <trkpt lat="46.50631" lon="0.36755">
        <ele>128.11</ele>
        <time>2021-12-23T14:49:52Z</time>
      </trkpt>
      <trkpt lat="46.50637" lon="0.36751">
        <ele>128.184</ele>
        <time>2021-12-23T14:49:58Z</time>
      </trkpt>
      <trkpt lat="46.50644" lon="0.36749">
        <ele>128.561</ele>
        <time>2021-12-23T14:50:05Z</time>
      </trkpt>
      <trkpt lat="46.50651" lon="0.36751">
        <ele>129.96</ele>
        <time>2021-12-23T14:50:14Z</time>
      </trkpt>
      <trkpt lat="46.50657" lon="0.36753">
        <ele>131.071</ele>
        <time>2021-12-23T14:50:23Z</time>
      </trkpt>
      <trkpt lat="46.50664" lon="0.36751">
        <ele>130.47</ele>
        <time>2021-12-23T14:50:30Z</time>
      </trkpt>
      <trkpt lat="46.50671" lon="0.36749">
        <ele>131.089</ele>
        <time>2021-12-23T14:50:36Z</time>
      </trkpt>
      <trkpt lat="46.50678" lon="0.36751">
        <ele>131.106</ele>
        <time>2021-12-23T14:50:43Z</time>
      </trkpt>
      <trkpt lat="46.50684" lon="0.36753">
        <ele>130.916</ele>
        <time>2021-12-23T14:50:48Z</time>
      </trkpt>
      <trkpt lat="46.50691" lon="0.36757">
        <ele>130.54</ele>
        <time>2021-12-23T14:50:57Z</time>
      </trkpt>
      <trkpt lat="46.50697" lon="0.36763">
        <ele>130.819</ele>
        <time>2021-12-23T14:51:06Z</time>
      </trkpt>
      <trkpt lat="46.50703" lon="0.36769">
        <ele>131.025</ele>
        <time>2021-12-23T14:51:13Z</time>
      </trkpt>
      <trkpt lat="46.5071" lon="0.36773">
        <ele>131.181</ele>
        <time>2021-12-23T14:51:21Z</time>
      </trkpt>
      <trkpt lat="46.50717" lon="0.36776">
        <ele>130.986</ele>
        <time>2021-12-23T14:51:28Z</time>
      </trkpt>
      <trkpt lat="46.50722" lon="0.36782">
        <ele>131.213</ele>
        <time>2021-12-23T14:51:36Z</time>
      </trkpt>
      <trkpt lat="46.50728" lon="0.36788">
        <ele>131.273</ele>
        <time>2021-12-23T14:51:43Z</time>
      </trkpt>
      <trkpt lat="46.50734" lon="0.36794">
        <ele>132.162</ele>
        <time>2021-12-23T14:51:48Z</time>
      </trkpt>
      <trkpt lat="46.5074" lon="0.36798">
        <ele>132.347</ele>
        <time>2021-12-23T14:51:57Z</time>
      </trkpt>
      <trkpt lat="46.50746" lon="0.36803">
        <ele>132.37</ele>
        <time>2021-12-23T14:52:04Z</time>
      </trkpt>
      <trkpt lat="46.50752" lon="0.36808">
        <ele>131.881</ele>
        <time>2021-12-23T14:52:10Z</time>
      </trkpt>
      <trkpt lat="46.50758" lon="0.36813">
        <ele>132.008</ele>
        <time>2021-12-23T14:52:18Z</time>
      </trkpt>
      <trkpt lat="46.50765" lon="0.36818">
        <ele>132.439</ele>
        <time>2021-12-23T14:52:27Z</time>
      </trkpt>
      <trkpt lat="46.50772" lon="0.36823">
        <ele>132.943</ele>
        <time>2021-12-23T14:52:34Z</time>
      </trkpt>
      <trkpt lat="46.50778" lon="0.36828">
        <ele>132.909</ele>
        <time>2021-12-23T14:52:41Z</time>
      </trkpt>
      <trkpt lat="46.50782" lon="0.36836">
        <ele>134.013</ele>
        <time>2021-12-23T14:52:50Z</time>
      </trkpt>
      <trkpt lat="46.50785" lon="0.36844">
        <ele>133.379</ele>
        <time>2021-12-23T14:52:57Z</time>
      </trkpt>
      <trkpt lat="46.50789" lon="0.36853">
        <ele>133.464</ele>
        <time>2021-12-23T14:53:04Z</time>
      </trkpt>
      <trkpt lat="46.50793" lon="0.36862">
        <ele>133.149</ele>
        <time>2021-12-23T14:53:11Z</time>
      </trkpt>
      <trkpt lat="46.50795" lon="0.3687">
        <ele>132.954</ele>
        <time>2021-12-23T14:53:17Z</time>
      </trkpt>
      <trkpt lat="46.508" lon="0.36879">
        <ele>132.855</ele>
        <time>2021-12-23T14:53:22Z</time>
      </trkpt>
      <trkpt lat="46.50804" lon="0.36887">
        <ele>132.715</ele>
        <time>2021-12-23T14:53:30Z</time>
      </trkpt>
      <trkpt lat="46.50806" lon="0.36896">
        <ele>132.89</ele>
        <time>2021-12-23T14:53:37Z</time>
      </trkpt>
      <trkpt lat="46.50808" lon="0.36906">
        <ele>133.572</ele>
        <time>2021-12-23T14:53:45Z</time>
      </trkpt>
      <trkpt lat="46.50811" lon="0.36916">
        <ele>133.968</ele>
        <time>2021-12-23T14:53:52Z</time>
      </trkpt>
      <trkpt lat="46.50812" lon="0.36925">
        <ele>134.448</ele>
        <time>2021-12-23T14:54:01Z</time>
      </trkpt>
      <trkpt lat="46.50812" lon="0.36935">
        <ele>134.47</ele>
        <time>2021-12-23T14:54:08Z</time>
      </trkpt>
      <trkpt lat="46.50811" lon="0.36946">
        <ele>135.003</ele>
        <time>2021-12-23T14:54:16Z</time>
      </trkpt>
      <trkpt lat="46.50814" lon="0.36957">
        <ele>135.98</ele>
        <time>2021-12-23T14:54:25Z</time>
      </trkpt>
      <trkpt lat="46.50815" lon="0.36968">
        <ele>135.698</ele>
        <time>2021-12-23T14:54:31Z</time>
      </trkpt>
      <trkpt lat="46.50817" lon="0.36977">
        <ele>135.893</ele>
        <time>2021-12-23T14:54:37Z</time>
      </trkpt>
      <trkpt lat="46.5082" lon="0.36986">
        <ele>135.861</ele>
        <time>2021-12-23T14:54:42Z</time>
      </trkpt>
      <trkpt lat="46.5082" lon="0.36997">
        <ele>135.322</ele>
        <time>2021-12-23T14:54:48Z</time>
      </trkpt>
      <trkpt lat="46.50822" lon="0.37007">
        <ele>134.578</ele>
        <time>2021-12-23T14:54:55Z</time>
      </trkpt>
      <trkpt lat="46.50825" lon="0.37017">
        <ele>135.088</ele>
        <time>2021-12-23T14:55:00Z</time>
      </trkpt>
      <trkpt lat="46.50828" lon="0.37026">
        <ele>135.134</ele>
        <time>2021-12-23T14:55:06Z</time>
      </trkpt>
      <trkpt lat="46.5083" lon="0.37036">
        <ele>134.814</ele>
        <time>2021-12-23T14:55:13Z</time>
      </trkpt>
      <trkpt lat="46.50833" lon="0.37045">
        <ele>134.345</ele>
        <time>2021-12-23T14:55:20Z</time>
      </trkpt>
      <trkpt lat="46.50837" lon="0.37054">
        <ele>134.315</ele>
        <time>2021-12-23T14:55:25Z</time>
      </trkpt>
      <trkpt lat="46.50841" lon="0.37062">
        <ele>134.384</ele>
        <time>2021-12-23T14:55:32Z</time>
      </trkpt>
      <trkpt lat="46.50844" lon="0.3707">
        <ele>134.348</ele>
        <time>2021-12-23T14:55:38Z</time>
      </trkpt>
      <trkpt lat="46.50848" lon="0.3708">
        <ele>134.298</ele>
        <time>2021-12-23T14:55:45Z</time>
      </trkpt>
      <trkpt lat="46.50851" lon="0.37088">
        <ele>134.485</ele>
        <time>2021-12-23T14:55:51Z</time>
      </trkpt>
      <trkpt lat="46.50853" lon="0.37097">
        <ele>134.807</ele>
        <time>2021-12-23T14:55:59Z</time>
      </trkpt>
      <trkpt lat="46.50853" lon="0.37108">
        <ele>134.73</ele>
        <time>2021-12-23T14:56:08Z</time>
      </trkpt>
      <trkpt lat="46.50854" lon="0.37119">
        <ele>134.881</ele>
        <time>2021-12-23T14:56:14Z</time>
      </trkpt>
      <trkpt lat="46.50856" lon="0.37128">
        <ele>134.651</ele>
        <time>2021-12-23T14:56:20Z</time>
      </trkpt>
      <trkpt lat="46.50857" lon="0.37139">
        <ele>134.222</ele>
        <time>2021-12-23T14:56:26Z</time>
      </trkpt>
      <trkpt lat="46.50859" lon="0.37148">
        <ele>134.743</ele>
        <time>2021-12-23T14:56:32Z</time>
      </trkpt>
      <trkpt lat="46.50861" lon="0.37159">
        <ele>134.771</ele>
        <time>2021-12-23T14:56:40Z</time>
      </trkpt>
      <trkpt lat="46.50863" lon="0.37168">
        <ele>134.308</ele>
        <time>2021-12-23T14:56:49Z</time>
      </trkpt>
      <trkpt lat="46.50867" lon="0.37177">
        <ele>134.07</ele>
        <time>2021-12-23T14:56:57Z</time>
      </trkpt>
      <trkpt lat="46.50871" lon="0.37185">
        <ele>134.248</ele>
        <time>2021-12-23T14:57:02Z</time>
      </trkpt>
      <trkpt lat="46.50873" lon="0.37195">
        <ele>134.206</ele>
        <time>2021-12-23T14:57:08Z</time>
      </trkpt>
      <trkpt lat="46.50876" lon="0.37204">
        <ele>133.72</ele>
        <time>2021-12-23T14:57:14Z</time>
      </trkpt>
      <trkpt lat="46.50879" lon="0.37213">
        <ele>134.814</ele>
        <time>2021-12-23T14:57:20Z</time>
      </trkpt>
      <trkpt lat="46.50883" lon="0.37221">
        <ele>134.436</ele>
        <time>2021-12-23T14:57:28Z</time>
      </trkpt>
      <trkpt lat="46.50886" lon="0.3723">
        <ele>134.882</ele>
        <time>2021-12-23T14:57:35Z</time>
      </trkpt>
      <trkpt lat="46.50889" lon="0.3724">
        <ele>135.111</ele>
        <time>2021-12-23T14:57:43Z</time>
      </trkpt>
      <trkpt lat="46.5089" lon="0.3725">
        <ele>135.597</ele>
        <time>2021-12-23T14:57:50Z</time>
      </trkpt>
      <trkpt lat="46.50893" lon="0.37259">
        <ele>135.019</ele>
        <time>2021-12-23T14:57:57Z</time>
      </trkpt>
      <trkpt lat="46.50896" lon="0.37268">
        <ele>135.134</ele>
        <time>2021-12-23T14:58:03Z</time>
      </trkpt>
      <trkpt lat="46.50899" lon="0.37277">
        <ele>134.673</ele>
        <time>2021-12-23T14:58:10Z</time>
      </trkpt>
      <trkpt lat="46.50902" lon="0.37286">
        <ele>134.935</ele>
        <time>2021-12-23T14:58:16Z</time>
      </trkpt>
      <trkpt lat="46.50906" lon="0.37296">
        <ele>135.024</ele>
        <time>2021-12-23T14:58:22Z</time>
      </trkpt>
      <trkpt lat="46.5091" lon="0.37304">
        <ele>134.601</ele>
        <time>2021-12-23T14:58:28Z</time>
      </trkpt>
      <trkpt lat="46.50914" lon="0.37311">
        <ele>133.938</ele>
        <time>2021-12-23T14:58:40Z</time>
      </trkpt>
      <trkpt lat="46.50919" lon="0.3732">
        <ele>134.153</ele>
        <time>2021-12-23T14:58:45Z</time>
      </trkpt>
      <trkpt lat="46.50922" lon="0.37329">
        <ele>134.338</ele>
        <time>2021-12-23T14:58:50Z</time>
      </trkpt>
      <trkpt lat="46.50926" lon="0.37337">
        <ele>134.417</ele>
        <time>2021-12-23T14:58:57Z</time>
      </trkpt>
      <trkpt lat="46.5093" lon="0.37346">
        <ele>134.746</ele>
        <time>2021-12-23T14:59:03Z</time>
      </trkpt>
      <trkpt lat="46.50934" lon="0.37356">
        <ele>134.793</ele>
        <time>2021-12-23T14:59:08Z</time>
      </trkpt>
      <trkpt lat="46.50939" lon="0.37364">
        <ele>134.557</ele>
        <time>2021-12-23T14:59:13Z</time>
      </trkpt>
      <trkpt lat="46.50942" lon="0.37373">
        <ele>134.444</ele>
        <time>2021-12-23T14:59:18Z</time>
      </trkpt>
      <trkpt lat="46.50946" lon="0.37381">
        <ele>133.602</ele>
        <time>2021-12-23T14:59:24Z</time>
      </trkpt>
      <trkpt lat="46.50951" lon="0.37389">
        <ele>132.943</ele>
        <time>2021-12-23T14:59:29Z</time>
      </trkpt>
      <trkpt lat="46.50954" lon="0.37398">
        <ele>132.182</ele>
        <time>2021-12-23T14:59:35Z</time>
      </trkpt>
      <trkpt lat="46.50957" lon="0.37407">
        <ele>131.852</ele>
        <time>2021-12-23T14:59:41Z</time>
      </trkpt>
      <trkpt lat="46.5096" lon="0.37416">
        <ele>132.104</ele>
        <time>2021-12-23T14:59:47Z</time>
      </trkpt>
      <trkpt lat="46.50964" lon="0.37424">
        <ele>132.008</ele>
        <time>2021-12-23T14:59:53Z</time>
      </trkpt>
      <trkpt lat="46.50968" lon="0.37433">
        <ele>133.051</ele>
        <time>2021-12-23T15:00:01Z</time>
      </trkpt>
      <trkpt lat="46.50973" lon="0.37441">
        <ele>132.587</ele>
        <time>2021-12-23T15:00:07Z</time>
      </trkpt>
      <trkpt lat="46.50978" lon="0.37448">
        <ele>133.378</ele>
        <time>2021-12-23T15:00:14Z</time>
      </trkpt>
      <trkpt lat="46.50986" lon="0.3745">
        <ele>132.91</ele>
        <time>2021-12-23T15:00:20Z</time>
      </trkpt>
      <trkpt lat="46.50992" lon="0.37451">
        <ele>133.219</ele>
        <time>2021-12-23T15:00:26Z</time>
      </trkpt>
      <trkpt lat="46.50999" lon="0.37447">
        <ele>133.264</ele>
        <time>2021-12-23T15:00:34Z</time>
      </trkpt>
      <trkpt lat="46.51005" lon="0.37443">
        <ele>133.512</ele>
        <time>2021-12-23T15:00:40Z</time>
      </trkpt>
      <trkpt lat="46.51011" lon="0.3744">
        <ele>133.499</ele>
        <time>2021-12-23T15:00:45Z</time>
      </trkpt>
      <trkpt lat="46.51018" lon="0.37438">
        <ele>133.273</ele>
        <time>2021-12-23T15:00:53Z</time>
      </trkpt>
      <trkpt lat="46.51025" lon="0.37437">
        <ele>133.977</ele>
        <time>2021-12-23T15:01:00Z</time>
      </trkpt>
      <trkpt lat="46.51032" lon="0.37435">
        <ele>133.484</ele>
        <time>2021-12-23T15:01:08Z</time>
      </trkpt>
      <trkpt lat="46.51039" lon="0.37431">
        <ele>133.689</ele>
        <time>2021-12-23T15:01:15Z</time>
      </trkpt>
      <trkpt lat="46.51046" lon="0.37428">
        <ele>133.979</ele>
        <time>2021-12-23T15:01:22Z</time>
      </trkpt>
      <trkpt lat="46.51052" lon="0.37425">
        <ele>134.038</ele>
        <time>2021-12-23T15:01:30Z</time>
      </trkpt>
      <trkpt lat="46.5106" lon="0.37419">
        <ele>134.228</ele>
        <time>2021-12-23T15:01:35Z</time>
      </trkpt>
      <trkpt lat="46.51066" lon="0.37416">
        <ele>134.669</ele>
        <time>2021-12-23T15:01:41Z</time>
      </trkpt>
      <trkpt lat="46.51073" lon="0.37413">
        <ele>134.146</ele>
        <time>2021-12-23T15:01:47Z</time>
      </trkpt>
      <trkpt lat="46.5108" lon="0.37412">
        <ele>134.761</ele>
        <time>2021-12-23T15:01:55Z</time>
      </trkpt>
      <trkpt lat="46.51087" lon="0.37409">
        <ele>134.35</ele>
        <time>2021-12-23T15:02:02Z</time>
      </trkpt>
      <trkpt lat="46.51093" lon="0.37406">
        <ele>134.421</ele>
        <time>2021-12-23T15:02:08Z</time>
      </trkpt>
      <trkpt lat="46.511" lon="0.37404">
        <ele>135.06</ele>
        <time>2021-12-23T15:02:15Z</time>
      </trkpt>
      <trkpt lat="46.51106" lon="0.374">
        <ele>134.582</ele>
        <time>2021-12-23T15:02:21Z</time>
      </trkpt>
      <trkpt lat="46.51113" lon="0.37397">
        <ele>134.789</ele>
        <time>2021-12-23T15:02:27Z</time>
      </trkpt>
      <trkpt lat="46.5112" lon="0.37395">
        <ele>135.054</ele>
        <time>2021-12-23T15:02:33Z</time>
      </trkpt>
      <trkpt lat="46.51126" lon="0.37393">
        <ele>135.472</ele>
        <time>2021-12-23T15:02:39Z</time>
      </trkpt>
      <trkpt lat="46.51132" lon="0.37389">
        <ele>135.02</ele>
        <time>2021-12-23T15:02:44Z</time>
      </trkpt>
      <trkpt lat="46.51139" lon="0.37385">
        <ele>135.093</ele>
        <time>2021-12-23T15:02:50Z</time>
      </trkpt>
      <trkpt lat="46.51145" lon="0.37381">
        <ele>135.011</ele>
        <time>2021-12-23T15:02:57Z</time>
      </trkpt>
      <trkpt lat="46.51151" lon="0.37377">
        <ele>134.45</ele>
        <time>2021-12-23T15:03:04Z</time>
      </trkpt>
      <trkpt lat="46.51158" lon="0.37372">
        <ele>133.306</ele>
        <time>2021-12-23T15:03:21Z</time>
      </trkpt>
      <trkpt lat="46.51165" lon="0.37368">
        <ele>132.665</ele>
        <time>2021-12-23T15:03:38Z</time>
      </trkpt>
      <trkpt lat="46.51172" lon="0.37366">
        <ele>132.448</ele>
        <time>2021-12-23T15:03:55Z</time>
      </trkpt>
      <trkpt lat="46.51178" lon="0.37365">
        <ele>132.592</ele>
        <time>2021-12-23T15:04:10Z</time>
      </trkpt>
      <trkpt lat="46.51185" lon="0.3736">
        <ele>132.751</ele>
        <time>2021-12-23T15:04:19Z</time>
      </trkpt>
      <trkpt lat="46.51191" lon="0.37355">
        <ele>132.557</ele>
        <time>2021-12-23T15:04:27Z</time>
      </trkpt>
      <trkpt lat="46.51201" lon="0.37348">
        <ele>132.453</ele>
        <time>2021-12-23T15:04:32Z</time>
      </trkpt>
      <trkpt lat="46.51209" lon="0.37344">
        <ele>132.372</ele>
        <time>2021-12-23T15:04:37Z</time>
      </trkpt>
      <trkpt lat="46.51216" lon="0.37341">
        <ele>132.264</ele>
        <time>2021-12-23T15:04:42Z</time>
      </trkpt>
      <trkpt lat="46.51223" lon="0.37338">
        <ele>131.905</ele>
        <time>2021-12-23T15:04:48Z</time>
      </trkpt>
      <trkpt lat="46.51236" lon="0.37338">
        <ele>131.747</ele>
        <time>2021-12-23T15:04:53Z</time>
      </trkpt>
      <trkpt lat="46.51255" lon="0.37334">
        <ele>131.384</ele>
        <time>2021-12-23T15:04:58Z</time>
      </trkpt>
      <trkpt lat="46.51266" lon="0.3733">
        <ele>131.832</ele>
        <time>2021-12-23T15:05:03Z</time>
      </trkpt>
      <trkpt lat="46.51275" lon="0.37328">
        <ele>131.842</ele>
        <time>2021-12-23T15:05:08Z</time>
      </trkpt>
      <trkpt lat="46.51284" lon="0.37329">
        <ele>132.383</ele>
        <time>2021-12-23T15:05:13Z</time>
      </trkpt>
      <trkpt lat="46.5129" lon="0.3733">
        <ele>132.801</ele>
        <time>2021-12-23T15:05:19Z</time>
      </trkpt>
      <trkpt lat="46.51297" lon="0.3733">
        <ele>131.715</ele>
        <time>2021-12-23T15:05:26Z</time>
      </trkpt>
      <trkpt lat="46.51304" lon="0.37326">
        <ele>130.672</ele>
        <time>2021-12-23T15:05:31Z</time>
      </trkpt>
      <trkpt lat="46.5131" lon="0.37322">
        <ele>130.126</ele>
        <time>2021-12-23T15:05:39Z</time>
      </trkpt>
      <trkpt lat="46.51316" lon="0.37317">
        <ele>130.232</ele>
        <time>2021-12-23T15:05:45Z</time>
      </trkpt>
      <trkpt lat="46.51323" lon="0.37311">
        <ele>129.863</ele>
        <time>2021-12-23T15:05:51Z</time>
      </trkpt>
      <trkpt lat="46.5133" lon="0.37309">
        <ele>129.459</ele>
        <time>2021-12-23T15:05:56Z</time>
      </trkpt>
      <trkpt lat="46.51336" lon="0.37306">
        <ele>128.747</ele>
        <time>2021-12-23T15:06:03Z</time>
      </trkpt>
      <trkpt lat="46.51345" lon="0.37302">
        <ele>128.142</ele>
        <time>2021-12-23T15:06:09Z</time>
      </trkpt>
      <trkpt lat="46.51353" lon="0.37297">
        <ele>127.412</ele>
        <time>2021-12-23T15:06:14Z</time>
      </trkpt>
      <trkpt lat="46.51359" lon="0.37292">
        <ele>127.24</ele>
        <time>2021-12-23T15:06:29Z</time>
      </trkpt>
      <trkpt lat="46.51365" lon="0.3729">
        <ele>127.174</ele>
        <time>2021-12-23T15:06:37Z</time>
      </trkpt>
      <trkpt lat="46.51371" lon="0.37287">
        <ele>126.257</ele>
        <time>2021-12-23T15:06:43Z</time>
      </trkpt>
      <trkpt lat="46.51378" lon="0.37285">
        <ele>125.13</ele>
        <time>2021-12-23T15:06:49Z</time>
      </trkpt>
      <trkpt lat="46.51385" lon="0.37283">
        <ele>125.572</ele>
        <time>2021-12-23T15:06:57Z</time>
      </trkpt>
      <trkpt lat="46.51392" lon="0.3728">
        <ele>125.377</ele>
        <time>2021-12-23T15:07:04Z</time>
      </trkpt>
      <trkpt lat="46.51398" lon="0.37277">
        <ele>124.767</ele>
        <time>2021-12-23T15:07:12Z</time>
      </trkpt>
      <trkpt lat="46.51405" lon="0.37275">
        <ele>123.941</ele>
        <time>2021-12-23T15:07:17Z</time>
      </trkpt>
      <trkpt lat="46.5141" lon="0.37269">
        <ele>123.277</ele>
        <time>2021-12-23T15:07:24Z</time>
      </trkpt>
      <trkpt lat="46.51413" lon="0.37261">
        <ele>123.319</ele>
        <time>2021-12-23T15:07:30Z</time>
      </trkpt>
      <trkpt lat="46.51414" lon="0.37251">
        <ele>123.102</ele>
        <time>2021-12-23T15:07:41Z</time>
      </trkpt>
      <trkpt lat="46.51414" lon="0.37242">
        <ele>122.893</ele>
        <time>2021-12-23T15:07:48Z</time>
      </trkpt>
      <trkpt lat="46.51414" lon="0.37231">
        <ele>122.134</ele>
        <time>2021-12-23T15:07:56Z</time>
      </trkpt>
      <trkpt lat="46.51417" lon="0.37223">
        <ele>121.302</ele>
        <time>2021-12-23T15:08:03Z</time>
      </trkpt>
      <trkpt lat="46.5142" lon="0.37212">
        <ele>118.767</ele>
        <time>2021-12-23T15:08:22Z</time>
      </trkpt>
      <trkpt lat="46.51422" lon="0.37201">
        <ele>118.025</ele>
        <time>2021-12-23T15:08:30Z</time>
      </trkpt>
      <trkpt lat="46.51427" lon="0.37189">
        <ele>117.904</ele>
        <time>2021-12-23T15:08:35Z</time>
      </trkpt>
      <trkpt lat="46.51429" lon="0.3718">
        <ele>117.049</ele>
        <time>2021-12-23T15:08:41Z</time>
      </trkpt>
      <trkpt lat="46.51434" lon="0.37173">
        <ele>117.512</ele>
        <time>2021-12-23T15:08:46Z</time>
      </trkpt>
      <trkpt lat="46.51437" lon="0.37164">
        <ele>116.455</ele>
        <time>2021-12-23T15:08:53Z</time>
      </trkpt>
      <trkpt lat="46.51438" lon="0.37154">
        <ele>115.749</ele>
        <time>2021-12-23T15:08:58Z</time>
      </trkpt>
      <trkpt lat="46.51438" lon="0.37145">
        <ele>115.185</ele>
        <time>2021-12-23T15:09:04Z</time>
      </trkpt>
      <trkpt lat="46.51435" lon="0.37135">
        <ele>114.378</ele>
        <time>2021-12-23T15:09:11Z</time>
      </trkpt>
      <trkpt lat="46.51432" lon="0.37126">
        <ele>113.142</ele>
        <time>2021-12-23T15:09:17Z</time>
      </trkpt>
      <trkpt lat="46.51431" lon="0.37117">
        <ele>112.686</ele>
        <time>2021-12-23T15:09:22Z</time>
      </trkpt>
      <trkpt lat="46.51433" lon="0.37106">
        <ele>111.471</ele>
        <time>2021-12-23T15:09:27Z</time>
      </trkpt>
      <trkpt lat="46.5143" lon="0.37097">
        <ele>110.939</ele>
        <time>2021-12-23T15:09:35Z</time>
      </trkpt>
      <trkpt lat="46.51425" lon="0.3709">
        <ele>110.011</ele>
        <time>2021-12-23T15:09:48Z</time>
      </trkpt>
      <trkpt lat="46.5142" lon="0.37084">
        <ele>109.481</ele>
        <time>2021-12-23T15:09:54Z</time>
      </trkpt>
      <trkpt lat="46.51424" lon="0.37074">
        <ele>107.58</ele>
        <time>2021-12-23T15:10:27Z</time>
      </trkpt>
      <trkpt lat="46.51431" lon="0.37065">
        <ele>106.79</ele>
        <time>2021-12-23T15:10:37Z</time>
      </trkpt>
      <trkpt lat="46.51439" lon="0.37055">
        <ele>106.797</ele>
        <time>2021-12-23T15:10:42Z</time>
      </trkpt>
      <trkpt lat="46.51442" lon="0.37047">
        <ele>106.023</ele>
        <time>2021-12-23T15:10:50Z</time>
      </trkpt>
      <trkpt lat="46.51446" lon="0.37037">
        <ele>105.481</ele>
        <time>2021-12-23T15:10:58Z</time>
      </trkpt>
      <trkpt lat="46.5145" lon="0.3703">
        <ele>105.497</ele>
        <time>2021-12-23T15:11:03Z</time>
      </trkpt>
      <trkpt lat="46.51455" lon="0.37022">
        <ele>104.753</ele>
        <time>2021-12-23T15:11:08Z</time>
      </trkpt>
      <trkpt lat="46.5146" lon="0.37013">
        <ele>105.617</ele>
        <time>2021-12-23T15:11:13Z</time>
      </trkpt>
      <trkpt lat="46.51463" lon="0.37003">
        <ele>104.207</ele>
        <time>2021-12-23T15:11:18Z</time>
      </trkpt>
      <trkpt lat="46.51466" lon="0.36992">
        <ele>102.88</ele>
        <time>2021-12-23T15:11:29Z</time>
      </trkpt>
      <trkpt lat="46.51468" lon="0.36982">
        <ele>102.68</ele>
        <time>2021-12-23T15:11:34Z</time>
      </trkpt>
      <trkpt lat="46.51471" lon="0.36973">
        <ele>102.226</ele>
        <time>2021-12-23T15:11:39Z</time>
      </trkpt>
      <trkpt lat="46.51473" lon="0.36963">
        <ele>101.594</ele>
        <time>2021-12-23T15:11:45Z</time>
      </trkpt>
      <trkpt lat="46.51476" lon="0.36954">
        <ele>101.525</ele>
        <time>2021-12-23T15:11:51Z</time>
      </trkpt>
      <trkpt lat="46.51479" lon="0.36944">
        <ele>101.595</ele>
        <time>2021-12-23T15:11:57Z</time>
      </trkpt>
      <trkpt lat="46.51479" lon="0.36934">
        <ele>100.952</ele>
        <time>2021-12-23T15:12:04Z</time>
      </trkpt>
      <trkpt lat="46.5148" lon="0.36923">
        <ele>100.273</ele>
        <time>2021-12-23T15:12:10Z</time>
      </trkpt>
      <trkpt lat="46.5148" lon="0.36934">
        <ele>98.866</ele>
        <time>2021-12-23T15:12:36Z</time>
      </trkpt>
      <trkpt lat="46.5148" lon="0.36944">
        <ele>98.878</ele>
        <time>2021-12-23T15:12:41Z</time>
      </trkpt>
      <trkpt lat="46.51479" lon="0.36955">
        <ele>99.635</ele>
        <time>2021-12-23T15:12:46Z</time>
      </trkpt>
      <trkpt lat="46.51477" lon="0.36965">
        <ele>98.808</ele>
        <time>2021-12-23T15:12:53Z</time>
      </trkpt>
      <trkpt lat="46.51477" lon="0.36975">
        <ele>99.374</ele>
        <time>2021-12-23T15:12:58Z</time>
      </trkpt>
      <trkpt lat="46.51478" lon="0.36985">
        <ele>98.373</ele>
        <time>2021-12-23T15:13:11Z</time>
      </trkpt>
      <trkpt lat="46.51479" lon="0.36995">
        <ele>98.985</ele>
        <time>2021-12-23T15:13:17Z</time>
      </trkpt>
      <trkpt lat="46.51481" lon="0.37005">
        <ele>98.908</ele>
        <time>2021-12-23T15:13:25Z</time>
      </trkpt>
      <trkpt lat="46.51484" lon="0.3702">
        <ele>99.445</ele>
        <time>2021-12-23T15:13:30Z</time>
      </trkpt>
      <trkpt lat="46.51486" lon="0.37029">
        <ele>99.144</ele>
        <time>2021-12-23T15:13:35Z</time>
      </trkpt>
      <trkpt lat="46.5149" lon="0.37038">
        <ele>99.888</ele>
        <time>2021-12-23T15:13:42Z</time>
      </trkpt>
      <trkpt lat="46.51492" lon="0.37048">
        <ele>99.964</ele>
        <time>2021-12-23T15:13:49Z</time>
      </trkpt>
      <trkpt lat="46.51496" lon="0.37058">
        <ele>99.318</ele>
        <time>2021-12-23T15:13:58Z</time>
      </trkpt>
      <trkpt lat="46.51501" lon="0.37066">
        <ele>99.763</ele>
        <time>2021-12-23T15:14:05Z</time>
      </trkpt>
      <trkpt lat="46.51505" lon="0.37076">
        <ele>99.469</ele>
        <time>2021-12-23T15:14:11Z</time>
      </trkpt>
      <trkpt lat="46.5151" lon="0.37084">
        <ele>98.922</ele>
        <time>2021-12-23T15:14:17Z</time>
      </trkpt>
      <trkpt lat="46.51514" lon="0.37091">
        <ele>99.305</ele>
        <time>2021-12-23T15:14:23Z</time>
      </trkpt>
      <trkpt lat="46.51517" lon="0.37099">
        <ele>99.681</ele>
        <time>2021-12-23T15:14:29Z</time>
      </trkpt>
      <trkpt lat="46.51519" lon="0.37109">
        <ele>99.259</ele>
        <time>2021-12-23T15:14:36Z</time>
      </trkpt>
      <trkpt lat="46.51522" lon="0.37118">
        <ele>98.455</ele>
        <time>2021-12-23T15:14:42Z</time>
      </trkpt>
      <trkpt lat="46.51525" lon="0.37128">
        <ele>96.618</ele>
        <time>2021-12-23T15:14:49Z</time>
      </trkpt>
      <trkpt lat="46.51528" lon="0.37137">
        <ele>96.616</ele>
        <time>2021-12-23T15:14:54Z</time>
      </trkpt>
      <trkpt lat="46.51532" lon="0.37144">
        <ele>96.608</ele>
        <time>2021-12-23T15:15:03Z</time>
      </trkpt>
      <trkpt lat="46.51533" lon="0.37154">
        <ele>96.022</ele>
        <time>2021-12-23T15:15:10Z</time>
      </trkpt>
      <trkpt lat="46.51534" lon="0.37163">
        <ele>95.547</ele>
        <time>2021-12-23T15:15:15Z</time>
      </trkpt>
      <trkpt lat="46.51536" lon="0.37175">
        <ele>94.889</ele>
        <time>2021-12-23T15:15:21Z</time>
      </trkpt>
      <trkpt lat="46.51538" lon="0.37185">
        <ele>92.58</ele>
        <time>2021-12-23T15:15:27Z</time>
      </trkpt>
      <trkpt lat="46.51538" lon="0.37195">
        <ele>94.678</ele>
        <time>2021-12-23T15:15:37Z</time>
      </trkpt>
      <trkpt lat="46.51538" lon="0.37206">
        <ele>94.905</ele>
        <time>2021-12-23T15:15:44Z</time>
      </trkpt>
      <trkpt lat="46.51538" lon="0.37215">
        <ele>94.507</ele>
        <time>2021-12-23T15:15:52Z</time>
      </trkpt>
      <trkpt lat="46.51539" lon="0.37226">
        <ele>94.262</ele>
        <time>2021-12-23T15:16:01Z</time>
      </trkpt>
      <trkpt lat="46.51541" lon="0.37236">
        <ele>94.37</ele>
        <time>2021-12-23T15:16:06Z</time>
      </trkpt>
      <trkpt lat="46.51543" lon="0.37246">
        <ele>94.55</ele>
        <time>2021-12-23T15:16:12Z</time>
      </trkpt>
      <trkpt lat="46.51546" lon="0.37256">
        <ele>94.249</ele>
        <time>2021-12-23T15:16:17Z</time>
      </trkpt>
      <trkpt lat="46.51549" lon="0.37265">
        <ele>94.096</ele>
        <time>2021-12-23T15:16:24Z</time>
      </trkpt>
      <trkpt lat="46.51555" lon="0.37272">
        <ele>93.942</ele>
        <time>2021-12-23T15:16:30Z</time>
      </trkpt>
      <trkpt lat="46.51558" lon="0.37281">
        <ele>93.8</ele>
        <time>2021-12-23T15:16:36Z</time>
      </trkpt>
      <trkpt lat="46.51561" lon="0.3729">
        <ele>93.74</ele>
        <time>2021-12-23T15:16:44Z</time>
      </trkpt>
      <trkpt lat="46.51565" lon="0.373">
        <ele>94.051</ele>
        <time>2021-12-23T15:16:51Z</time>
      </trkpt>
      <trkpt lat="46.51567" lon="0.37309">
        <ele>94.319</ele>
        <time>2021-12-23T15:16:58Z</time>
      </trkpt>
      <trkpt lat="46.51571" lon="0.37317">
        <ele>94.501</ele>
        <time>2021-12-23T15:17:04Z</time>
      </trkpt>
      <trkpt lat="46.51575" lon="0.37326">
        <ele>94.673</ele>
        <time>2021-12-23T15:17:10Z</time>
      </trkpt>
      <trkpt lat="46.51581" lon="0.37332">
        <ele>93.927</ele>
        <time>2021-12-23T15:17:16Z</time>
      </trkpt>
      <trkpt lat="46.51586" lon="0.37338">
        <ele>94.139</ele>
        <time>2021-12-23T15:17:22Z</time>
      </trkpt>
      <trkpt lat="46.51592" lon="0.37343">
        <ele>94.554</ele>
        <time>2021-12-23T15:17:29Z</time>
      </trkpt>
      <trkpt lat="46.51597" lon="0.3735">
        <ele>94.679</ele>
        <time>2021-12-23T15:17:36Z</time>
      </trkpt>
      <trkpt lat="46.51602" lon="0.37356">
        <ele>94.43</ele>
        <time>2021-12-23T15:17:43Z</time>
      </trkpt>
      <trkpt lat="46.51609" lon="0.37362">
        <ele>94.874</ele>
        <time>2021-12-23T15:17:50Z</time>
      </trkpt>
      <trkpt lat="46.51613" lon="0.37371">
        <ele>94.924</ele>
        <time>2021-12-23T15:17:55Z</time>
      </trkpt>
      <trkpt lat="46.51619" lon="0.37377">
        <ele>94.329</ele>
        <time>2021-12-23T15:18:01Z</time>
      </trkpt>
      <trkpt lat="46.51622" lon="0.37385">
        <ele>94.502</ele>
        <time>2021-12-23T15:18:10Z</time>
      </trkpt>
      <trkpt lat="46.51628" lon="0.37392">
        <ele>94.938</ele>
        <time>2021-12-23T15:18:18Z</time>
      </trkpt>
      <trkpt lat="46.51634" lon="0.37396">
        <ele>95.565</ele>
        <time>2021-12-23T15:18:24Z</time>
      </trkpt>
      <trkpt lat="46.5164" lon="0.37402">
        <ele>94.673</ele>
        <time>2021-12-23T15:18:31Z</time>
      </trkpt>
      <trkpt lat="46.51646" lon="0.37407">
        <ele>94.495</ele>
        <time>2021-12-23T15:18:37Z</time>
      </trkpt>
      <trkpt lat="46.51651" lon="0.37415">
        <ele>94.261</ele>
        <time>2021-12-23T15:18:43Z</time>
      </trkpt>
      <trkpt lat="46.51658" lon="0.37417">
        <ele>95.002</ele>
        <time>2021-12-23T15:18:51Z</time>
      </trkpt>
      <trkpt lat="46.51664" lon="0.37421">
        <ele>94.487</ele>
        <time>2021-12-23T15:18:59Z</time>
      </trkpt>
      <trkpt lat="46.51671" lon="0.37425">
        <ele>94.085</ele>
        <time>2021-12-23T15:19:05Z</time>
      </trkpt>
      <trkpt lat="46.51678" lon="0.3743">
        <ele>94.415</ele>
        <time>2021-12-23T15:19:14Z</time>
      </trkpt>
      <trkpt lat="46.51684" lon="0.37434">
        <ele>95.169</ele>
        <time>2021-12-23T15:19:21Z</time>
      </trkpt>
      <trkpt lat="46.5169" lon="0.37438">
        <ele>95.164</ele>
        <time>2021-12-23T15:19:29Z</time>
      </trkpt>
      <trkpt lat="46.51696" lon="0.37441">
        <ele>95.193</ele>
        <time>2021-12-23T15:19:35Z</time>
      </trkpt>
      <trkpt lat="46.51702" lon="0.37447">
        <ele>94.746</ele>
        <time>2021-12-23T15:19:41Z</time>
      </trkpt>
      <trkpt lat="46.51708" lon="0.3745">
        <ele>94.826</ele>
        <time>2021-12-23T15:19:48Z</time>
      </trkpt>
      <trkpt lat="46.51715" lon="0.37455">
        <ele>94.04</ele>
        <time>2021-12-23T15:19:55Z</time>
      </trkpt>
      <trkpt lat="46.51721" lon="0.3746">
        <ele>93.774</ele>
        <time>2021-12-23T15:20:01Z</time>
      </trkpt>
      <trkpt lat="46.51727" lon="0.37463">
        <ele>95.039</ele>
        <time>2021-12-23T15:20:09Z</time>
      </trkpt>
      <trkpt lat="46.51734" lon="0.37468">
        <ele>95.035</ele>
        <time>2021-12-23T15:20:15Z</time>
      </trkpt>
      <trkpt lat="46.5174" lon="0.37472">
        <ele>95.13</ele>
        <time>2021-12-23T15:20:23Z</time>
      </trkpt>
      <trkpt lat="46.51747" lon="0.37474">
        <ele>94.938</ele>
        <time>2021-12-23T15:20:29Z</time>
      </trkpt>
      <trkpt lat="46.51754" lon="0.37477">
        <ele>94.856</ele>
        <time>2021-12-23T15:20:36Z</time>
      </trkpt>
      <trkpt lat="46.5176" lon="0.37481">
        <ele>95.501</ele>
        <time>2021-12-23T15:20:43Z</time>
      </trkpt>
      <trkpt lat="46.51767" lon="0.37484">
        <ele>95.496</ele>
        <time>2021-12-23T15:20:49Z</time>
      </trkpt>
      <trkpt lat="46.51774" lon="0.37486">
        <ele>95.453</ele>
        <time>2021-12-23T15:20:55Z</time>
      </trkpt>
      <trkpt lat="46.5178" lon="0.37489">
        <ele>95.139</ele>
        <time>2021-12-23T15:21:03Z</time>
      </trkpt>
      <trkpt lat="46.51788" lon="0.37491">
        <ele>95.173</ele>
        <time>2021-12-23T15:21:10Z</time>
      </trkpt>
      <trkpt lat="46.51796" lon="0.37492">
        <ele>95.221</ele>
        <time>2021-12-23T15:21:15Z</time>
      </trkpt>
      <trkpt lat="46.51803" lon="0.37492">
        <ele>95.111</ele>
        <time>2021-12-23T15:21:23Z</time>
      </trkpt>
      <trkpt lat="46.5181" lon="0.37495">
        <ele>94.83</ele>
        <time>2021-12-23T15:21:31Z</time>
      </trkpt>
      <trkpt lat="46.51818" lon="0.37497">
        <ele>94.268</ele>
        <time>2021-12-23T15:21:38Z</time>
      </trkpt>
      <trkpt lat="46.51825" lon="0.37494">
        <ele>94.002</ele>
        <time>2021-12-23T15:21:45Z</time>
      </trkpt>
      <trkpt lat="46.51831" lon="0.37494">
        <ele>94.246</ele>
        <time>2021-12-23T15:21:51Z</time>
      </trkpt>
      <trkpt lat="46.51838" lon="0.37498">
        <ele>94.971</ele>
        <time>2021-12-23T15:21:59Z</time>
      </trkpt>
      <trkpt lat="46.51846" lon="0.37498">
        <ele>94.126</ele>
        <time>2021-12-23T15:22:04Z</time>
      </trkpt>
      <trkpt lat="46.51852" lon="0.37501">
        <ele>93.916</ele>
        <time>2021-12-23T15:22:11Z</time>
      </trkpt>
      <trkpt lat="46.51859" lon="0.37502">
        <ele>93.953</ele>
        <time>2021-12-23T15:22:16Z</time>
      </trkpt>
      <trkpt lat="46.51865" lon="0.37507">
        <ele>94.284</ele>
        <time>2021-12-23T15:22:24Z</time>
      </trkpt>
      <trkpt lat="46.51871" lon="0.37512">
        <ele>94.676</ele>
        <time>2021-12-23T15:22:31Z</time>
      </trkpt>
      <trkpt lat="46.51878" lon="0.37517">
        <ele>95.33</ele>
        <time>2021-12-23T15:22:37Z</time>
      </trkpt>
      <trkpt lat="46.51883" lon="0.37523">
        <ele>95.474</ele>
        <time>2021-12-23T15:22:44Z</time>
      </trkpt>
      <trkpt lat="46.51889" lon="0.37528">
        <ele>96.265</ele>
        <time>2021-12-23T15:22:51Z</time>
      </trkpt>
      <trkpt lat="46.51893" lon="0.37536">
        <ele>95.889</ele>
        <time>2021-12-23T15:22:59Z</time>
      </trkpt>
      <trkpt lat="46.51896" lon="0.37545">
        <ele>95.729</ele>
        <time>2021-12-23T15:23:06Z</time>
      </trkpt>
      <trkpt lat="46.51899" lon="0.37555">
        <ele>96.044</ele>
        <time>2021-12-23T15:23:14Z</time>
      </trkpt>
      <trkpt lat="46.519" lon="0.37565">
        <ele>96.025</ele>
        <time>2021-12-23T15:23:21Z</time>
      </trkpt>
      <trkpt lat="46.519" lon="0.37575">
        <ele>96.222</ele>
        <time>2021-12-23T15:23:30Z</time>
      </trkpt>
      <trkpt lat="46.51901" lon="0.37585">
        <ele>95.985</ele>
        <time>2021-12-23T15:23:37Z</time>
      </trkpt>
      <trkpt lat="46.51902" lon="0.37596">
        <ele>95.829</ele>
        <time>2021-12-23T15:23:44Z</time>
      </trkpt>
      <trkpt lat="46.51901" lon="0.37606">
        <ele>95.24</ele>
        <time>2021-12-23T15:23:51Z</time>
      </trkpt>
      <trkpt lat="46.51898" lon="0.37615">
        <ele>95.737</ele>
        <time>2021-12-23T15:23:58Z</time>
      </trkpt>
      <trkpt lat="46.51897" lon="0.37625">
        <ele>95.784</ele>
        <time>2021-12-23T15:24:04Z</time>
      </trkpt>
      <trkpt lat="46.51895" lon="0.37637">
        <ele>95.624</ele>
        <time>2021-12-23T15:24:11Z</time>
      </trkpt>
      <trkpt lat="46.51895" lon="0.37648">
        <ele>96.08</ele>
        <time>2021-12-23T15:24:18Z</time>
      </trkpt>
      <trkpt lat="46.51893" lon="0.37658">
        <ele>95.789</ele>
        <time>2021-12-23T15:24:24Z</time>
      </trkpt>
      <trkpt lat="46.5189" lon="0.37666">
        <ele>96.095</ele>
        <time>2021-12-23T15:24:32Z</time>
      </trkpt>
      <trkpt lat="46.51889" lon="0.37677">
        <ele>96.312</ele>
        <time>2021-12-23T15:24:38Z</time>
      </trkpt>
      <trkpt lat="46.51887" lon="0.37688">
        <ele>96.252</ele>
        <time>2021-12-23T15:24:45Z</time>
      </trkpt>
      <trkpt lat="46.51886" lon="0.37697">
        <ele>96.336</ele>
        <time>2021-12-23T15:24:51Z</time>
      </trkpt>
      <trkpt lat="46.51885" lon="0.37708">
        <ele>96.056</ele>
        <time>2021-12-23T15:24:57Z</time>
      </trkpt>
      <trkpt lat="46.51885" lon="0.37717">
        <ele>96.127</ele>
        <time>2021-12-23T15:25:04Z</time>
      </trkpt>
      <trkpt lat="46.51883" lon="0.37726">
        <ele>97.257</ele>
        <time>2021-12-23T15:25:11Z</time>
      </trkpt>
      <trkpt lat="46.51881" lon="0.37737">
        <ele>96.524</ele>
        <time>2021-12-23T15:25:17Z</time>
      </trkpt>
      <trkpt lat="46.51879" lon="0.37747">
        <ele>96.881</ele>
        <time>2021-12-23T15:25:23Z</time>
      </trkpt>
      <trkpt lat="46.51879" lon="0.37756">
        <ele>96.179</ele>
        <time>2021-12-23T15:25:29Z</time>
      </trkpt>
      <trkpt lat="46.51878" lon="0.37766">
        <ele>96.941</ele>
        <time>2021-12-23T15:25:37Z</time>
      </trkpt>
      <trkpt lat="46.51875" lon="0.37777">
        <ele>96.011</ele>
        <time>2021-12-23T15:25:44Z</time>
      </trkpt>
      <trkpt lat="46.51873" lon="0.37787">
        <ele>95.879</ele>
        <time>2021-12-23T15:25:51Z</time>
      </trkpt>
      <trkpt lat="46.51871" lon="0.37796">
        <ele>96.107</ele>
        <time>2021-12-23T15:25:57Z</time>
      </trkpt>
      <trkpt lat="46.51868" lon="0.37805">
        <ele>94.905</ele>
        <time>2021-12-23T15:26:05Z</time>
      </trkpt>
      <trkpt lat="46.51864" lon="0.37812">
        <ele>95.137</ele>
        <time>2021-12-23T15:26:31Z</time>
      </trkpt>
      <trkpt lat="46.51859" lon="0.3782">
        <ele>95.596</ele>
        <time>2021-12-23T15:26:39Z</time>
      </trkpt>
      <trkpt lat="46.51856" lon="0.37827">
        <ele>95.322</ele>
        <time>2021-12-23T15:26:47Z</time>
      </trkpt>
      <trkpt lat="46.51851" lon="0.37835">
        <ele>95.817</ele>
        <time>2021-12-23T15:26:54Z</time>
      </trkpt>
      <trkpt lat="46.51847" lon="0.37843">
        <ele>97.346</ele>
        <time>2021-12-23T15:27:03Z</time>
      </trkpt>
      <trkpt lat="46.51843" lon="0.37851">
        <ele>97.696</ele>
        <time>2021-12-23T15:27:12Z</time>
      </trkpt>
      <trkpt lat="46.51838" lon="0.37858">
        <ele>97.468</ele>
        <time>2021-12-23T15:27:19Z</time>
      </trkpt>
      <trkpt lat="46.51836" lon="0.37867">
        <ele>98.335</ele>
        <time>2021-12-23T15:27:25Z</time>
      </trkpt>
      <trkpt lat="46.51835" lon="0.37877">
        <ele>98.422</ele>
        <time>2021-12-23T15:27:30Z</time>
      </trkpt>
      <trkpt lat="46.51834" lon="0.37888">
        <ele>98.482</ele>
        <time>2021-12-23T15:27:37Z</time>
      </trkpt>
      <trkpt lat="46.51833" lon="0.37898">
        <ele>98.56</ele>
        <time>2021-12-23T15:27:45Z</time>
      </trkpt>
      <trkpt lat="46.51832" lon="0.37908">
        <ele>99.018</ele>
        <time>2021-12-23T15:27:52Z</time>
      </trkpt>
      <trkpt lat="46.51833" lon="0.37919">
        <ele>98.787</ele>
        <time>2021-12-23T15:27:58Z</time>
      </trkpt>
      <trkpt lat="46.51832" lon="0.3793">
        <ele>98.665</ele>
        <time>2021-12-23T15:28:06Z</time>
      </trkpt>
      <trkpt lat="46.51831" lon="0.3794">
        <ele>98.334</ele>
        <time>2021-12-23T15:28:13Z</time>
      </trkpt>
      <trkpt lat="46.51829" lon="0.37949">
        <ele>97.829</ele>
        <time>2021-12-23T15:28:19Z</time>
      </trkpt>
      <trkpt lat="46.51828" lon="0.37959">
        <ele>98.188</ele>
        <time>2021-12-23T15:28:27Z</time>
      </trkpt>
      <trkpt lat="46.51825" lon="0.37968">
        <ele>98.269</ele>
        <time>2021-12-23T15:28:35Z</time>
      </trkpt>
      <trkpt lat="46.51823" lon="0.37979">
        <ele>98.102</ele>
        <time>2021-12-23T15:28:41Z</time>
      </trkpt>
      <trkpt lat="46.51823" lon="0.37989">
        <ele>96.338</ele>
        <time>2021-12-23T15:28:46Z</time>
      </trkpt>
      <trkpt lat="46.51818" lon="0.37996">
        <ele>94.644</ele>
        <time>2021-12-23T15:28:53Z</time>
      </trkpt>
      <trkpt lat="46.51813" lon="0.38003">
        <ele>93.977</ele>
        <time>2021-12-23T15:29:00Z</time>
      </trkpt>
      <trkpt lat="46.51807" lon="0.38007">
        <ele>96.645</ele>
        <time>2021-12-23T15:29:08Z</time>
      </trkpt>
      <trkpt lat="46.518" lon="0.38013">
        <ele>96.627</ele>
        <time>2021-12-23T15:29:16Z</time>
      </trkpt>
      <trkpt lat="46.51794" lon="0.38019">
        <ele>96.565</ele>
        <time>2021-12-23T15:29:23Z</time>
      </trkpt>
      <trkpt lat="46.51787" lon="0.38023">
        <ele>97.263</ele>
        <time>2021-12-23T15:29:30Z</time>
      </trkpt>
      <trkpt lat="46.51783" lon="0.3803">
        <ele>97.756</ele>
        <time>2021-12-23T15:29:37Z</time>
      </trkpt>
      <trkpt lat="46.51777" lon="0.38036">
        <ele>97.867</ele>
        <time>2021-12-23T15:29:45Z</time>
      </trkpt>
      <trkpt lat="46.51771" lon="0.38039">
        <ele>98.524</ele>
        <time>2021-12-23T15:29:53Z</time>
      </trkpt>
      <trkpt lat="46.51765" lon="0.38043">
        <ele>98.577</ele>
        <time>2021-12-23T15:29:59Z</time>
      </trkpt>
      <trkpt lat="46.51759" lon="0.38049">
        <ele>99.03</ele>
        <time>2021-12-23T15:30:07Z</time>
      </trkpt>
      <trkpt lat="46.51752" lon="0.38053">
        <ele>99.022</ele>
        <time>2021-12-23T15:30:14Z</time>
      </trkpt>
      <trkpt lat="46.51745" lon="0.38057">
        <ele>99.018</ele>
        <time>2021-12-23T15:30:21Z</time>
      </trkpt>
      <trkpt lat="46.51739" lon="0.38061">
        <ele>98.815</ele>
        <time>2021-12-23T15:30:28Z</time>
      </trkpt>
      <trkpt lat="46.51733" lon="0.38066">
        <ele>99.172</ele>
        <time>2021-12-23T15:30:34Z</time>
      </trkpt>
      <trkpt lat="46.51726" lon="0.3807">
        <ele>99.933</ele>
        <time>2021-12-23T15:30:43Z</time>
      </trkpt>
      <trkpt lat="46.51719" lon="0.38074">
        <ele>99.606</ele>
        <time>2021-12-23T15:30:50Z</time>
      </trkpt>
      <trkpt lat="46.51712" lon="0.38079">
        <ele>99.767</ele>
        <time>2021-12-23T15:30:58Z</time>
      </trkpt>
      <trkpt lat="46.51706" lon="0.38085">
        <ele>100.032</ele>
        <time>2021-12-23T15:31:05Z</time>
      </trkpt>
      <trkpt lat="46.51699" lon="0.38089">
        <ele>101.24</ele>
        <time>2021-12-23T15:31:14Z</time>
      </trkpt>
      <trkpt lat="46.51693" lon="0.38091">
        <ele>100.812</ele>
        <time>2021-12-23T15:31:21Z</time>
      </trkpt>
      <trkpt lat="46.51687" lon="0.38096">
        <ele>101.789</ele>
        <time>2021-12-23T15:31:29Z</time>
      </trkpt>
      <trkpt lat="46.5168" lon="0.38102">
        <ele>101.428</ele>
        <time>2021-12-23T15:31:37Z</time>
      </trkpt>
      <trkpt lat="46.51675" lon="0.38108">
        <ele>102.799</ele>
        <time>2021-12-23T15:31:44Z</time>
      </trkpt>
      <trkpt lat="46.5167" lon="0.38113">
        <ele>102.026</ele>
        <time>2021-12-23T15:31:52Z</time>
      </trkpt>
      <trkpt lat="46.51663" lon="0.38117">
        <ele>101.709</ele>
        <time>2021-12-23T15:31:58Z</time>
      </trkpt>
      <trkpt lat="46.51656" lon="0.3812">
        <ele>101.411</ele>
        <time>2021-12-23T15:32:05Z</time>
      </trkpt>
      <trkpt lat="46.51649" lon="0.38119">
        <ele>101.588</ele>
        <time>2021-12-23T15:32:11Z</time>
      </trkpt>
      <trkpt lat="46.51642" lon="0.38116">
        <ele>101.403</ele>
        <time>2021-12-23T15:32:18Z</time>
      </trkpt>
      <trkpt lat="46.51636" lon="0.38114">
        <ele>100.992</ele>
        <time>2021-12-23T15:32:25Z</time>
      </trkpt>
      <trkpt lat="46.51629" lon="0.38115">
        <ele>101.357</ele>
        <time>2021-12-23T15:32:30Z</time>
      </trkpt>
      <trkpt lat="46.51622" lon="0.38118">
        <ele>100.631</ele>
        <time>2021-12-23T15:32:37Z</time>
      </trkpt>
      <trkpt lat="46.51616" lon="0.38117">
        <ele>101.196</ele>
        <time>2021-12-23T15:32:46Z</time>
      </trkpt>
      <trkpt lat="46.51608" lon="0.38117">
        <ele>101.125</ele>
        <time>2021-12-23T15:32:55Z</time>
      </trkpt>
      <trkpt lat="46.51601" lon="0.38113">
        <ele>102.002</ele>
        <time>2021-12-23T15:33:01Z</time>
      </trkpt>
      <trkpt lat="46.51595" lon="0.38111">
        <ele>102.237</ele>
        <time>2021-12-23T15:33:07Z</time>
      </trkpt>
      <trkpt lat="46.51589" lon="0.38115">
        <ele>102.155</ele>
        <time>2021-12-23T15:33:14Z</time>
      </trkpt>
      <trkpt lat="46.51582" lon="0.38116">
        <ele>101.827</ele>
        <time>2021-12-23T15:33:19Z</time>
      </trkpt>
      <trkpt lat="46.51575" lon="0.38117">
        <ele>102.091</ele>
        <time>2021-12-23T15:33:26Z</time>
      </trkpt>
      <trkpt lat="46.51568" lon="0.3812">
        <ele>101.435</ele>
        <time>2021-12-23T15:33:34Z</time>
      </trkpt>
      <trkpt lat="46.51561" lon="0.3812">
        <ele>101.271</ele>
        <time>2021-12-23T15:33:40Z</time>
      </trkpt>
      <trkpt lat="46.51554" lon="0.3812">
        <ele>100.909</ele>
        <time>2021-12-23T15:33:45Z</time>
      </trkpt>
      <trkpt lat="46.51547" lon="0.38122">
        <ele>101.307</ele>
        <time>2021-12-23T15:33:52Z</time>
      </trkpt>
      <trkpt lat="46.51539" lon="0.3812">
        <ele>100.839</ele>
        <time>2021-12-23T15:33:59Z</time>
      </trkpt>
      <trkpt lat="46.51532" lon="0.38118">
        <ele>101.347</ele>
        <time>2021-12-23T15:34:05Z</time>
      </trkpt>
      <trkpt lat="46.51525" lon="0.38116">
        <ele>100.529</ele>
        <time>2021-12-23T15:34:14Z</time>
      </trkpt>
      <trkpt lat="46.51517" lon="0.38116">
        <ele>100.557</ele>
        <time>2021-12-23T15:34:20Z</time>
      </trkpt>
      <trkpt lat="46.5151" lon="0.38114">
        <ele>100.191</ele>
        <time>2021-12-23T15:34:33Z</time>
      </trkpt>
      <trkpt lat="46.51503" lon="0.3811">
        <ele>99.791</ele>
        <time>2021-12-23T15:34:41Z</time>
      </trkpt>
      <trkpt lat="46.51497" lon="0.38107">
        <ele>99.948</ele>
        <time>2021-12-23T15:34:46Z</time>
      </trkpt>
      <trkpt lat="46.51489" lon="0.38105">
        <ele>99.473</ele>
        <time>2021-12-23T15:34:51Z</time>
      </trkpt>
      <trkpt lat="46.51481" lon="0.38105">
        <ele>99.282</ele>
        <time>2021-12-23T15:34:57Z</time>
      </trkpt>
      <trkpt lat="46.51475" lon="0.38104">
        <ele>99.981</ele>
        <time>2021-12-23T15:35:04Z</time>
      </trkpt>
      <trkpt lat="46.51468" lon="0.38102">
        <ele>99.14</ele>
        <time>2021-12-23T15:35:10Z</time>
      </trkpt>
      <trkpt lat="46.51462" lon="0.38099">
        <ele>99.316</ele>
        <time>2021-12-23T15:35:15Z</time>
      </trkpt>
      <trkpt lat="46.51455" lon="0.38097">
        <ele>98.65</ele>
        <time>2021-12-23T15:35:21Z</time>
      </trkpt>
      <trkpt lat="46.51448" lon="0.38096">
        <ele>98.83</ele>
        <time>2021-12-23T15:35:28Z</time>
      </trkpt>
      <trkpt lat="46.51441" lon="0.38094">
        <ele>98.152</ele>
        <time>2021-12-23T15:35:33Z</time>
      </trkpt>
      <trkpt lat="46.51433" lon="0.38093">
        <ele>97.916</ele>
        <time>2021-12-23T15:35:39Z</time>
      </trkpt>
      <trkpt lat="46.51426" lon="0.38093">
        <ele>98.814</ele>
        <time>2021-12-23T15:35:49Z</time>
      </trkpt>
      <trkpt lat="46.5142" lon="0.38091">
        <ele>98.213</ele>
        <time>2021-12-23T15:35:55Z</time>
      </trkpt>
      <trkpt lat="46.51412" lon="0.38092">
        <ele>97.814</ele>
        <time>2021-12-23T15:36:01Z</time>
      </trkpt>
      <trkpt lat="46.51405" lon="0.38093">
        <ele>97.744</ele>
        <time>2021-12-23T15:36:08Z</time>
      </trkpt>
      <trkpt lat="46.51398" lon="0.38095">
        <ele>97.751</ele>
        <time>2021-12-23T15:36:14Z</time>
      </trkpt>
      <trkpt lat="46.51391" lon="0.38098">
        <ele>96.65</ele>
        <time>2021-12-23T15:36:21Z</time>
      </trkpt>
      <trkpt lat="46.51385" lon="0.38103">
        <ele>96.039</ele>
        <time>2021-12-23T15:36:28Z</time>
      </trkpt>
      <trkpt lat="46.51378" lon="0.38103">
        <ele>96.001</ele>
        <time>2021-12-23T15:36:35Z</time>
      </trkpt>
      <trkpt lat="46.51371" lon="0.38102">
        <ele>97.32</ele>
        <time>2021-12-23T15:36:42Z</time>
      </trkpt>
      <trkpt lat="46.51364" lon="0.381">
        <ele>97.01</ele>
        <time>2021-12-23T15:36:49Z</time>
      </trkpt>
      <trkpt lat="46.51356" lon="0.38098">
        <ele>96.527</ele>
        <time>2021-12-23T15:36:55Z</time>
      </trkpt>
      <trkpt lat="46.51349" lon="0.38097">
        <ele>96.434</ele>
        <time>2021-12-23T15:37:01Z</time>
      </trkpt>
      <trkpt lat="46.51342" lon="0.38095">
        <ele>96.05</ele>
        <time>2021-12-23T15:37:07Z</time>
      </trkpt>
      <trkpt lat="46.51335" lon="0.38093">
        <ele>96.591</ele>
        <time>2021-12-23T15:37:15Z</time>
      </trkpt>
      <trkpt lat="46.51328" lon="0.38089">
        <ele>96.496</ele>
        <time>2021-12-23T15:37:22Z</time>
      </trkpt>
      <trkpt lat="46.51322" lon="0.38086">
        <ele>96.111</ele>
        <time>2021-12-23T15:37:28Z</time>
      </trkpt>
      <trkpt lat="46.51315" lon="0.38083">
        <ele>95.104</ele>
        <time>2021-12-23T15:37:34Z</time>
      </trkpt>
      <trkpt lat="46.51308" lon="0.38081">
        <ele>95.444</ele>
        <time>2021-12-23T15:37:40Z</time>
      </trkpt>
      <trkpt lat="46.51301" lon="0.38079">
        <ele>95.283</ele>
        <time>2021-12-23T15:37:47Z</time>
      </trkpt>
      <trkpt lat="46.51294" lon="0.38075">
        <ele>94.91</ele>
        <time>2021-12-23T15:37:53Z</time>
      </trkpt>
      <trkpt lat="46.51287" lon="0.38071">
        <ele>95.544</ele>
        <time>2021-12-23T15:38:01Z</time>
      </trkpt>
      <trkpt lat="46.5128" lon="0.38067">
        <ele>95.74</ele>
        <time>2021-12-23T15:38:09Z</time>
      </trkpt>
      <trkpt lat="46.51274" lon="0.38063">
        <ele>95.978</ele>
        <time>2021-12-23T15:38:16Z</time>
      </trkpt>
      <trkpt lat="46.51267" lon="0.3806">
        <ele>96.026</ele>
        <time>2021-12-23T15:38:23Z</time>
      </trkpt>
      <trkpt lat="46.5126" lon="0.38057">
        <ele>96.386</ele>
        <time>2021-12-23T15:38:29Z</time>
      </trkpt>
      <trkpt lat="46.51254" lon="0.38052">
        <ele>96.622</ele>
        <time>2021-12-23T15:38:36Z</time>
      </trkpt>
      <trkpt lat="46.51247" lon="0.38049">
        <ele>96.008</ele>
        <time>2021-12-23T15:38:42Z</time>
      </trkpt>
      <trkpt lat="46.51241" lon="0.38045">
        <ele>96.471</ele>
        <time>2021-12-23T15:38:49Z</time>
      </trkpt>
      <trkpt lat="46.51236" lon="0.38038">
        <ele>97.309</ele>
        <time>2021-12-23T15:38:59Z</time>
      </trkpt>
      <trkpt lat="46.5123" lon="0.38034">
        <ele>97.305</ele>
        <time>2021-12-23T15:39:08Z</time>
      </trkpt>
      <trkpt lat="46.51223" lon="0.38031">
        <ele>96.921</ele>
        <time>2021-12-23T15:39:15Z</time>
      </trkpt>
      <trkpt lat="46.51218" lon="0.38025">
        <ele>97.681</ele>
        <time>2021-12-23T15:39:25Z</time>
      </trkpt>
      <trkpt lat="46.51212" lon="0.38021">
        <ele>99.228</ele>
        <time>2021-12-23T15:39:50Z</time>
      </trkpt>
      <trkpt lat="46.51205" lon="0.38017">
        <ele>99.49</ele>
        <time>2021-12-23T15:39:59Z</time>
      </trkpt>
      <trkpt lat="46.51199" lon="0.38011">
        <ele>99.418</ele>
        <time>2021-12-23T15:40:10Z</time>
      </trkpt>
      <trkpt lat="46.51193" lon="0.38007">
        <ele>100.105</ele>
        <time>2021-12-23T15:40:21Z</time>
      </trkpt>
      <trkpt lat="46.51188" lon="0.38">
        <ele>100.603</ele>
        <time>2021-12-23T15:40:29Z</time>
      </trkpt>
      <trkpt lat="46.51182" lon="0.37996">
        <ele>100.927</ele>
        <time>2021-12-23T15:40:36Z</time>
      </trkpt>
      <trkpt lat="46.51175" lon="0.37993">
        <ele>101.722</ele>
        <time>2021-12-23T15:40:42Z</time>
      </trkpt>
      <trkpt lat="46.51168" lon="0.37989">
        <ele>101.936</ele>
        <time>2021-12-23T15:40:48Z</time>
      </trkpt>
      <trkpt lat="46.51161" lon="0.37986">
        <ele>102.557</ele>
        <time>2021-12-23T15:40:55Z</time>
      </trkpt>
      <trkpt lat="46.51154" lon="0.37982">
        <ele>103.386</ele>
        <time>2021-12-23T15:41:05Z</time>
      </trkpt>
      <trkpt lat="46.51148" lon="0.3798">
        <ele>104.062</ele>
        <time>2021-12-23T15:41:12Z</time>
      </trkpt>
      <trkpt lat="46.51141" lon="0.37978">
        <ele>104.919</ele>
        <time>2021-12-23T15:41:21Z</time>
      </trkpt>
      <trkpt lat="46.51134" lon="0.37978">
        <ele>105.762</ele>
        <time>2021-12-23T15:41:30Z</time>
      </trkpt>
      <trkpt lat="46.51128" lon="0.37979">
        <ele>105.665</ele>
        <time>2021-12-23T15:41:39Z</time>
      </trkpt>
      <trkpt lat="46.51121" lon="0.37976">
        <ele>106.409</ele>
        <time>2021-12-23T15:41:44Z</time>
      </trkpt>
      <trkpt lat="46.51114" lon="0.37974">
        <ele>106.996</ele>
        <time>2021-12-23T15:41:54Z</time>
      </trkpt>
      <trkpt lat="46.51108" lon="0.37978">
        <ele>106.652</ele>
        <time>2021-12-23T15:42:14Z</time>
      </trkpt>
      <trkpt lat="46.51101" lon="0.37981">
        <ele>107.708</ele>
        <time>2021-12-23T15:44:30Z</time>
      </trkpt>
      <trkpt lat="46.51095" lon="0.37982">
        <ele>107.29</ele>
        <time>2021-12-23T15:44:39Z</time>
      </trkpt>
      <trkpt lat="46.51088" lon="0.3798">
        <ele>108.107</ele>
        <time>2021-12-23T15:44:50Z</time>
      </trkpt>
      <trkpt lat="46.51081" lon="0.37979">
        <ele>107.847</ele>
        <time>2021-12-23T15:44:56Z</time>
      </trkpt>
      <trkpt lat="46.51074" lon="0.37979">
        <ele>107.918</ele>
        <time>2021-12-23T15:45:02Z</time>
      </trkpt>
      <trkpt lat="46.51068" lon="0.37978">
        <ele>108.111</ele>
        <time>2021-12-23T15:45:11Z</time>
      </trkpt>
      <trkpt lat="46.51061" lon="0.37979">
        <ele>108.08</ele>
        <time>2021-12-23T15:45:19Z</time>
      </trkpt>
      <trkpt lat="46.51054" lon="0.37981">
        <ele>108.241</ele>
        <time>2021-12-23T15:45:26Z</time>
      </trkpt>
      <trkpt lat="46.51048" lon="0.37982">
        <ele>107.778</ele>
        <time>2021-12-23T15:45:33Z</time>
      </trkpt>
      <trkpt lat="46.5104" lon="0.37981">
        <ele>108.795</ele>
        <time>2021-12-23T15:45:39Z</time>
      </trkpt>
      <trkpt lat="46.51034" lon="0.37981">
        <ele>109.313</ele>
        <time>2021-12-23T15:45:45Z</time>
      </trkpt>
      <trkpt lat="46.51027" lon="0.37982">
        <ele>109.251</ele>
        <time>2021-12-23T15:45:52Z</time>
      </trkpt>
      <trkpt lat="46.5102" lon="0.37981">
        <ele>109.064</ele>
        <time>2021-12-23T15:46:03Z</time>
      </trkpt>
      <trkpt lat="46.51013" lon="0.37982">
        <ele>109.081</ele>
        <time>2021-12-23T15:46:08Z</time>
      </trkpt>
      <trkpt lat="46.51006" lon="0.37982">
        <ele>108.906</ele>
        <time>2021-12-23T15:46:13Z</time>
      </trkpt>
      <trkpt lat="46.50999" lon="0.37982">
        <ele>109.787</ele>
        <time>2021-12-23T15:46:20Z</time>
      </trkpt>
      <trkpt lat="46.50992" lon="0.37982">
        <ele>109.568</ele>
        <time>2021-12-23T15:46:26Z</time>
      </trkpt>
      <trkpt lat="46.50985" lon="0.37982">
        <ele>110.152</ele>
        <time>2021-12-23T15:46:33Z</time>
      </trkpt>
      <trkpt lat="46.50978" lon="0.37983">
        <ele>109.516</ele>
        <time>2021-12-23T15:46:38Z</time>
      </trkpt>
      <trkpt lat="46.50971" lon="0.37983">
        <ele>109.637</ele>
        <time>2021-12-23T15:46:45Z</time>
      </trkpt>
      <trkpt lat="46.50965" lon="0.3798">
        <ele>109.457</ele>
        <time>2021-12-23T15:46:50Z</time>
      </trkpt>
      <trkpt lat="46.50958" lon="0.37976">
        <ele>110.049</ele>
        <time>2021-12-23T15:47:05Z</time>
      </trkpt>
      <trkpt lat="46.50951" lon="0.37973">
        <ele>110.384</ele>
        <time>2021-12-23T15:47:12Z</time>
      </trkpt>
      <trkpt lat="46.50945" lon="0.37969">
        <ele>110.793</ele>
        <time>2021-12-23T15:47:18Z</time>
      </trkpt>
      <trkpt lat="46.50938" lon="0.37966">
        <ele>110.772</ele>
        <time>2021-12-23T15:47:25Z</time>
      </trkpt>
      <trkpt lat="46.50931" lon="0.37963">
        <ele>111.237</ele>
        <time>2021-12-23T15:47:31Z</time>
      </trkpt>
      <trkpt lat="46.50923" lon="0.37961">
        <ele>110.634</ele>
        <time>2021-12-23T15:47:39Z</time>
      </trkpt>
      <trkpt lat="46.50916" lon="0.37959">
        <ele>110.917</ele>
        <time>2021-12-23T15:47:44Z</time>
      </trkpt>
      <trkpt lat="46.5091" lon="0.37956">
        <ele>110.895</ele>
        <time>2021-12-23T15:47:50Z</time>
      </trkpt>
      <trkpt lat="46.50903" lon="0.37951">
        <ele>110.964</ele>
        <time>2021-12-23T15:47:57Z</time>
      </trkpt>
      <trkpt lat="46.50898" lon="0.37945">
        <ele>111.723</ele>
        <time>2021-12-23T15:48:04Z</time>
      </trkpt>
      <trkpt lat="46.50893" lon="0.37938">
        <ele>111.715</ele>
        <time>2021-12-23T15:48:13Z</time>
      </trkpt>
      <trkpt lat="46.50888" lon="0.37932">
        <ele>112.538</ele>
        <time>2021-12-23T15:48:20Z</time>
      </trkpt>
      <trkpt lat="46.50885" lon="0.37923">
        <ele>112.262</ele>
        <time>2021-12-23T15:48:27Z</time>
      </trkpt>
      <trkpt lat="46.50879" lon="0.37918">
        <ele>112.389</ele>
        <time>2021-12-23T15:48:33Z</time>
      </trkpt>
      <trkpt lat="46.50874" lon="0.3791">
        <ele>112.117</ele>
        <time>2021-12-23T15:48:39Z</time>
      </trkpt>
      <trkpt lat="46.5087" lon="0.37902">
        <ele>112.304</ele>
        <time>2021-12-23T15:48:46Z</time>
      </trkpt>
      <trkpt lat="46.50867" lon="0.37892">
        <ele>111.832</ele>
        <time>2021-12-23T15:48:53Z</time>
      </trkpt>
      <trkpt lat="46.50862" lon="0.37883">
        <ele>111.78</ele>
        <time>2021-12-23T15:48:59Z</time>
      </trkpt>
      <trkpt lat="46.50858" lon="0.37876">
        <ele>111.831</ele>
        <time>2021-12-23T15:49:04Z</time>
      </trkpt>
      <trkpt lat="46.50853" lon="0.37869">
        <ele>112.473</ele>
        <time>2021-12-23T15:49:10Z</time>
      </trkpt>
      <trkpt lat="46.50849" lon="0.3786">
        <ele>113.613</ele>
        <time>2021-12-23T15:49:18Z</time>
      </trkpt>
      <trkpt lat="46.50844" lon="0.37853">
        <ele>113.316</ele>
        <time>2021-12-23T15:49:24Z</time>
      </trkpt>
      <trkpt lat="46.50841" lon="0.37844">
        <ele>113.507</ele>
        <time>2021-12-23T15:49:31Z</time>
      </trkpt>
      <trkpt lat="46.50836" lon="0.37837">
        <ele>112.727</ele>
        <time>2021-12-23T15:49:36Z</time>
      </trkpt>
      <trkpt lat="46.50831" lon="0.3783">
        <ele>112.952</ele>
        <time>2021-12-23T15:49:41Z</time>
      </trkpt>
      <trkpt lat="46.50826" lon="0.37824">
        <ele>112.969</ele>
        <time>2021-12-23T15:49:50Z</time>
      </trkpt>
      <trkpt lat="46.50822" lon="0.37816">
        <ele>112.744</ele>
        <time>2021-12-23T15:49:57Z</time>
      </trkpt>
      <trkpt lat="46.50821" lon="0.37806">
        <ele>112.76</ele>
        <time>2021-12-23T15:50:02Z</time>
      </trkpt>
      <trkpt lat="46.50819" lon="0.37797">
        <ele>111.848</ele>
        <time>2021-12-23T15:50:07Z</time>
      </trkpt>
      <trkpt lat="46.50814" lon="0.3779">
        <ele>112.73</ele>
        <time>2021-12-23T15:50:15Z</time>
      </trkpt>
      <trkpt lat="46.50808" lon="0.37785">
        <ele>112.604</ele>
        <time>2021-12-23T15:50:24Z</time>
      </trkpt>
      <trkpt lat="46.50801" lon="0.37782">
        <ele>113.242</ele>
        <time>2021-12-23T15:50:31Z</time>
      </trkpt>
      <trkpt lat="46.50795" lon="0.37779">
        <ele>114.033</ele>
        <time>2021-12-23T15:50:38Z</time>
      </trkpt>
      <trkpt lat="46.50788" lon="0.37776">
        <ele>114.56</ele>
        <time>2021-12-23T15:50:47Z</time>
      </trkpt>
      <trkpt lat="46.50782" lon="0.37773">
        <ele>114.396</ele>
        <time>2021-12-23T15:50:53Z</time>
      </trkpt>
      <trkpt lat="46.50777" lon="0.37766">
        <ele>114.369</ele>
        <time>2021-12-23T15:51:14Z</time>
      </trkpt>
      <trkpt lat="46.5077" lon="0.37765">
        <ele>114.886</ele>
        <time>2021-12-23T15:51:22Z</time>
      </trkpt>
      <trkpt lat="46.50763" lon="0.37767">
        <ele>114.761</ele>
        <time>2021-12-23T15:51:28Z</time>
      </trkpt>
      <trkpt lat="46.50756" lon="0.37768">
        <ele>114.886</ele>
        <time>2021-12-23T15:51:37Z</time>
      </trkpt>
      <trkpt lat="46.5075" lon="0.37773">
        <ele>114.883</ele>
        <time>2021-12-23T15:51:48Z</time>
      </trkpt>
      <trkpt lat="46.50745" lon="0.3778">
        <ele>115.073</ele>
        <time>2021-12-23T15:51:55Z</time>
      </trkpt>
      <trkpt lat="46.5074" lon="0.37787">
        <ele>114.719</ele>
        <time>2021-12-23T15:52:02Z</time>
      </trkpt>
      <trkpt lat="46.50735" lon="0.37795">
        <ele>115.215</ele>
        <time>2021-12-23T15:52:09Z</time>
      </trkpt>
      <trkpt lat="46.5073" lon="0.37801">
        <ele>116.189</ele>
        <time>2021-12-23T15:52:19Z</time>
      </trkpt>
      <trkpt lat="46.50726" lon="0.37808">
        <ele>117.04</ele>
        <time>2021-12-23T15:52:26Z</time>
      </trkpt>
      <trkpt lat="46.5072" lon="0.37814">
        <ele>118.034</ele>
        <time>2021-12-23T15:52:37Z</time>
      </trkpt>
      <trkpt lat="46.50717" lon="0.37822">
        <ele>118.626</ele>
        <time>2021-12-23T15:52:48Z</time>
      </trkpt>
      <trkpt lat="46.50711" lon="0.37828">
        <ele>120.168</ele>
        <time>2021-12-23T15:52:59Z</time>
      </trkpt>
      <trkpt lat="46.50707" lon="0.37836">
        <ele>120.18</ele>
        <time>2021-12-23T15:53:12Z</time>
      </trkpt>
      <trkpt lat="46.50703" lon="0.37844">
        <ele>121.01</ele>
        <time>2021-12-23T15:53:25Z</time>
      </trkpt>
      <trkpt lat="46.50699" lon="0.37851">
        <ele>122.208</ele>
        <time>2021-12-23T15:53:32Z</time>
      </trkpt>
      <trkpt lat="46.50693" lon="0.37857">
        <ele>122.367</ele>
        <time>2021-12-23T15:53:37Z</time>
      </trkpt>
      <trkpt lat="46.50688" lon="0.37864">
        <ele>122.115</ele>
        <time>2021-12-23T15:53:47Z</time>
      </trkpt>
      <trkpt lat="46.50684" lon="0.37871">
        <ele>123.076</ele>
        <time>2021-12-23T15:53:54Z</time>
      </trkpt>
      <trkpt lat="46.50679" lon="0.37878">
        <ele>123.118</ele>
        <time>2021-12-23T15:54:04Z</time>
      </trkpt>
      <trkpt lat="46.50673" lon="0.37883">
        <ele>123.42</ele>
        <time>2021-12-23T15:54:13Z</time>
      </trkpt>
      <trkpt lat="46.50667" lon="0.37888">
        <ele>124.229</ele>
        <time>2021-12-23T15:54:19Z</time>
      </trkpt>
      <trkpt lat="46.50663" lon="0.37896">
        <ele>124.485</ele>
        <time>2021-12-23T15:54:29Z</time>
      </trkpt>
      <trkpt lat="46.50659" lon="0.37906">
        <ele>124.827</ele>
        <time>2021-12-23T15:54:43Z</time>
      </trkpt>
      <trkpt lat="46.50655" lon="0.37913">
        <ele>125.542</ele>
        <time>2021-12-23T15:54:52Z</time>
      </trkpt>
      <trkpt lat="46.5065" lon="0.3792">
        <ele>125.809</ele>
        <time>2021-12-23T15:54:58Z</time>
      </trkpt>
      <trkpt lat="46.50644" lon="0.37927">
        <ele>126.119</ele>
        <time>2021-12-23T15:55:05Z</time>
      </trkpt>
      <trkpt lat="46.50638" lon="0.37932">
        <ele>126.731</ele>
        <time>2021-12-23T15:55:14Z</time>
      </trkpt>
      <trkpt lat="46.50634" lon="0.37939">
        <ele>127.595</ele>
        <time>2021-12-23T15:55:21Z</time>
      </trkpt>
      <trkpt lat="46.5063" lon="0.37946">
        <ele>128.057</ele>
        <time>2021-12-23T15:55:31Z</time>
      </trkpt>
      <trkpt lat="46.50624" lon="0.37952">
        <ele>128.178</ele>
        <time>2021-12-23T15:55:41Z</time>
      </trkpt>
      <trkpt lat="46.50618" lon="0.37958">
        <ele>128.378</ele>
        <time>2021-12-23T15:55:59Z</time>
      </trkpt>
      <trkpt lat="46.50614" lon="0.37966">
        <ele>128.03</ele>
        <time>2021-12-23T15:56:06Z</time>
      </trkpt>
      <trkpt lat="46.50608" lon="0.37973">
        <ele>129.094</ele>
        <time>2021-12-23T15:56:14Z</time>
      </trkpt>
      <trkpt lat="46.50604" lon="0.3798">
        <ele>129.558</ele>
        <time>2021-12-23T15:56:21Z</time>
      </trkpt>
      <trkpt lat="46.50599" lon="0.37988">
        <ele>129.501</ele>
        <time>2021-12-23T15:56:29Z</time>
      </trkpt>
      <trkpt lat="46.50593" lon="0.37995">
        <ele>129.922</ele>
        <time>2021-12-23T15:56:36Z</time>
      </trkpt>
      <trkpt lat="46.5059" lon="0.38004">
        <ele>130.3</ele>
        <time>2021-12-23T15:56:46Z</time>
      </trkpt>
      <trkpt lat="46.50583" lon="0.38009">
        <ele>130.819</ele>
        <time>2021-12-23T15:56:53Z</time>
      </trkpt>
      <trkpt lat="46.50581" lon="0.38018">
        <ele>131.427</ele>
        <time>2021-12-23T15:57:02Z</time>
      </trkpt>
      <trkpt lat="46.50576" lon="0.38026">
        <ele>130.98</ele>
        <time>2021-12-23T15:57:16Z</time>
      </trkpt>
      <trkpt lat="46.50571" lon="0.38032">
        <ele>130.59</ele>
        <time>2021-12-23T15:57:22Z</time>
      </trkpt>
      <trkpt lat="46.50565" lon="0.38036">
        <ele>131.075</ele>
        <time>2021-12-23T15:57:28Z</time>
      </trkpt>
      <trkpt lat="46.5056" lon="0.38043">
        <ele>130.972</ele>
        <time>2021-12-23T15:57:33Z</time>
      </trkpt>
      <trkpt lat="46.50555" lon="0.3805">
        <ele>130.962</ele>
        <time>2021-12-23T15:57:39Z</time>
      </trkpt>
      <trkpt lat="46.50549" lon="0.38056">
        <ele>130.638</ele>
        <time>2021-12-23T15:57:44Z</time>
      </trkpt>
      <trkpt lat="46.50544" lon="0.38062">
        <ele>130.952</ele>
        <time>2021-12-23T15:57:50Z</time>
      </trkpt>
      <trkpt lat="46.50538" lon="0.38066">
        <ele>130.734</ele>
        <time>2021-12-23T15:57:58Z</time>
      </trkpt>
      <trkpt lat="46.50533" lon="0.38072">
        <ele>130.293</ele>
        <time>2021-12-23T15:58:05Z</time>
      </trkpt>
      <trkpt lat="46.50527" lon="0.38077">
        <ele>130.428</ele>
        <time>2021-12-23T15:58:16Z</time>
      </trkpt>
      <trkpt lat="46.50522" lon="0.38082">
        <ele>131.139</ele>
        <time>2021-12-23T15:58:23Z</time>
      </trkpt>
      <trkpt lat="46.50516" lon="0.38088">
        <ele>131.781</ele>
        <time>2021-12-23T15:58:29Z</time>
      </trkpt>
      <trkpt lat="46.5051" lon="0.38094">
        <ele>130.901</ele>
        <time>2021-12-23T15:58:35Z</time>
      </trkpt>
      <trkpt lat="46.50506" lon="0.38101">
        <ele>130.843</ele>
        <time>2021-12-23T15:58:47Z</time>
      </trkpt>
      <trkpt lat="46.50503" lon="0.3811">
        <ele>129.851</ele>
        <time>2021-12-23T15:59:15Z</time>
      </trkpt>
      <trkpt lat="46.50496" lon="0.38112">
        <ele>130.188</ele>
        <time>2021-12-23T15:59:33Z</time>
      </trkpt>
      <trkpt lat="46.5049" lon="0.38113">
        <ele>130.505</ele>
        <time>2021-12-23T15:59:40Z</time>
      </trkpt>
      <trkpt lat="46.50483" lon="0.38109">
        <ele>130.856</ele>
        <time>2021-12-23T15:59:49Z</time>
      </trkpt>
      <trkpt lat="46.50478" lon="0.38102">
        <ele>131.465</ele>
        <time>2021-12-23T15:59:55Z</time>
      </trkpt>
      <trkpt lat="46.50472" lon="0.38097">
        <ele>130.855</ele>
        <time>2021-12-23T16:00:02Z</time>
      </trkpt>
      <trkpt lat="46.50466" lon="0.38091">
        <ele>130.828</ele>
        <time>2021-12-23T16:00:09Z</time>
      </trkpt>
      <trkpt lat="46.5046" lon="0.38086">
        <ele>131.088</ele>
        <time>2021-12-23T16:00:17Z</time>
      </trkpt>
      <trkpt lat="46.50453" lon="0.38082">
        <ele>131.093</ele>
        <time>2021-12-23T16:00:23Z</time>
      </trkpt>
      <trkpt lat="46.50446" lon="0.38077">
        <ele>131.083</ele>
        <time>2021-12-23T16:00:29Z</time>
      </trkpt>
      <trkpt lat="46.5044" lon="0.38072">
        <ele>131.764</ele>
        <time>2021-12-23T16:00:36Z</time>
      </trkpt>
      <trkpt lat="46.50434" lon="0.38066">
        <ele>132.165</ele>
        <time>2021-12-23T16:00:43Z</time>
      </trkpt>
      <trkpt lat="46.50428" lon="0.38062">
        <ele>132.171</ele>
        <time>2021-12-23T16:00:50Z</time>
      </trkpt>
      <trkpt lat="46.50422" lon="0.38057">
        <ele>132.72</ele>
        <time>2021-12-23T16:00:57Z</time>
      </trkpt>
      <trkpt lat="46.50415" lon="0.38052">
        <ele>132.793</ele>
        <time>2021-12-23T16:01:04Z</time>
      </trkpt>
      <trkpt lat="46.50409" lon="0.38045">
        <ele>133.094</ele>
        <time>2021-12-23T16:01:13Z</time>
      </trkpt>
      <trkpt lat="46.50402" lon="0.3804">
        <ele>132.157</ele>
        <time>2021-12-23T16:01:18Z</time>
      </trkpt>
      <trkpt lat="46.50396" lon="0.38036">
        <ele>132.313</ele>
        <time>2021-12-23T16:01:23Z</time>
      </trkpt>
      <trkpt lat="46.5039" lon="0.38031">
        <ele>133.057</ele>
        <time>2021-12-23T16:01:30Z</time>
      </trkpt>
      <trkpt lat="46.50383" lon="0.38027">
        <ele>133.057</ele>
        <time>2021-12-23T16:01:37Z</time>
      </trkpt>
      <trkpt lat="46.50377" lon="0.38022">
        <ele>133.324</ele>
        <time>2021-12-23T16:01:43Z</time>
      </trkpt>
      <trkpt lat="46.50371" lon="0.38015">
        <ele>133.501</ele>
        <time>2021-12-23T16:01:49Z</time>
      </trkpt>
      <trkpt lat="46.50365" lon="0.3801">
        <ele>133.207</ele>
        <time>2021-12-23T16:01:55Z</time>
      </trkpt>
      <trkpt lat="46.50359" lon="0.38006">
        <ele>132.808</ele>
        <time>2021-12-23T16:02:01Z</time>
      </trkpt>
      <trkpt lat="46.50353" lon="0.38">
        <ele>133.344</ele>
        <time>2021-12-23T16:02:09Z</time>
      </trkpt>
      <trkpt lat="46.50347" lon="0.37995">
        <ele>133.144</ele>
        <time>2021-12-23T16:02:15Z</time>
      </trkpt>
      <trkpt lat="46.5034" lon="0.37989">
        <ele>132.956</ele>
        <time>2021-12-23T16:02:22Z</time>
      </trkpt>
      <trkpt lat="46.50334" lon="0.37984">
        <ele>132.367</ele>
        <time>2021-12-23T16:02:29Z</time>
      </trkpt>
      <trkpt lat="46.50328" lon="0.3798">
        <ele>132.954</ele>
        <time>2021-12-23T16:02:36Z</time>
      </trkpt>
      <trkpt lat="46.50322" lon="0.37972">
        <ele>133.29</ele>
        <time>2021-12-23T16:02:44Z</time>
      </trkpt>
      <trkpt lat="46.50315" lon="0.37967">
        <ele>133.484</ele>
        <time>2021-12-23T16:02:50Z</time>
      </trkpt>
      <trkpt lat="46.50308" lon="0.37962">
        <ele>133.496</ele>
        <time>2021-12-23T16:02:57Z</time>
      </trkpt>
      <trkpt lat="46.50301" lon="0.37957">
        <ele>133.569</ele>
        <time>2021-12-23T16:03:03Z</time>
      </trkpt>
      <trkpt lat="46.50295" lon="0.37952">
        <ele>133.591</ele>
        <time>2021-12-23T16:03:11Z</time>
      </trkpt>
      <trkpt lat="46.50289" lon="0.37948">
        <ele>133.23</ele>
        <time>2021-12-23T16:03:17Z</time>
      </trkpt>
      <trkpt lat="46.50282" lon="0.37942">
        <ele>133.272</ele>
        <time>2021-12-23T16:03:24Z</time>
      </trkpt>
      <trkpt lat="46.50277" lon="0.37936">
        <ele>133.552</ele>
        <time>2021-12-23T16:03:31Z</time>
      </trkpt>
      <trkpt lat="46.50271" lon="0.37932">
        <ele>134.146</ele>
        <time>2021-12-23T16:03:37Z</time>
      </trkpt>
      <trkpt lat="46.50264" lon="0.37928">
        <ele>133.792</ele>
        <time>2021-12-23T16:03:43Z</time>
      </trkpt>
      <trkpt lat="46.50258" lon="0.37922">
        <ele>133.99</ele>
        <time>2021-12-23T16:03:49Z</time>
      </trkpt>
      <trkpt lat="46.50252" lon="0.37917">
        <ele>134.309</ele>
        <time>2021-12-23T16:03:56Z</time>
      </trkpt>
      <trkpt lat="46.50246" lon="0.37911">
        <ele>134.107</ele>
        <time>2021-12-23T16:04:04Z</time>
      </trkpt>
      <trkpt lat="46.5024" lon="0.37906">
        <ele>133.949</ele>
        <time>2021-12-23T16:04:10Z</time>
      </trkpt>
      <trkpt lat="46.50235" lon="0.37902">
        <ele>134.427</ele>
        <time>2021-12-23T16:04:15Z</time>
      </trkpt>
      <trkpt lat="46.50228" lon="0.37897">
        <ele>135.05</ele>
        <time>2021-12-23T16:04:21Z</time>
      </trkpt>
      <trkpt lat="46.50222" lon="0.37893">
        <ele>134.605</ele>
        <time>2021-12-23T16:04:26Z</time>
      </trkpt>
      <trkpt lat="46.50216" lon="0.37888">
        <ele>134.688</ele>
        <time>2021-12-23T16:04:34Z</time>
      </trkpt>
      <trkpt lat="46.5021" lon="0.37883">
        <ele>134.283</ele>
        <time>2021-12-23T16:04:42Z</time>
      </trkpt>
      <trkpt lat="46.50204" lon="0.37877">
        <ele>134.191</ele>
        <time>2021-12-23T16:04:48Z</time>
      </trkpt>
      <trkpt lat="46.50198" lon="0.37874">
        <ele>134.435</ele>
        <time>2021-12-23T16:04:54Z</time>
      </trkpt>
      <trkpt lat="46.50191" lon="0.37869">
        <ele>135.47</ele>
        <time>2021-12-23T16:05:02Z</time>
      </trkpt>
      <trkpt lat="46.50184" lon="0.37863">
        <ele>135.243</ele>
        <time>2021-12-23T16:05:09Z</time>
      </trkpt>
      <trkpt lat="46.50178" lon="0.37857">
        <ele>134.991</ele>
        <time>2021-12-23T16:05:16Z</time>
      </trkpt>
      <trkpt lat="46.50171" lon="0.37852">
        <ele>134.34</ele>
        <time>2021-12-23T16:05:23Z</time>
      </trkpt>
      <trkpt lat="46.50165" lon="0.37848">
        <ele>134.515</ele>
        <time>2021-12-23T16:05:30Z</time>
      </trkpt>
      <trkpt lat="46.5016" lon="0.37842">
        <ele>134.623</ele>
        <time>2021-12-23T16:05:37Z</time>
      </trkpt>
      <trkpt lat="46.50154" lon="0.37837">
        <ele>134.482</ele>
        <time>2021-12-23T16:05:47Z</time>
      </trkpt>
      <trkpt lat="46.5015" lon="0.37828">
        <ele>134.685</ele>
        <time>2021-12-23T16:05:52Z</time>
      </trkpt>
      <trkpt lat="46.50153" lon="0.37819">
        <ele>134.487</ele>
        <time>2021-12-23T16:06:02Z</time>
      </trkpt>
      <trkpt lat="46.50158" lon="0.37811">
        <ele>134.218</ele>
        <time>2021-12-23T16:06:10Z</time>
      </trkpt>
      <trkpt lat="46.50163" lon="0.37805">
        <ele>133.387</ele>
        <time>2021-12-23T16:06:17Z</time>
      </trkpt>
      <trkpt lat="46.50168" lon="0.37798">
        <ele>134.091</ele>
        <time>2021-12-23T16:06:24Z</time>
      </trkpt>
      <trkpt lat="46.50173" lon="0.37791">
        <ele>134.198</ele>
        <time>2021-12-23T16:06:29Z</time>
      </trkpt>
      <trkpt lat="46.50179" lon="0.37784">
        <ele>134.499</ele>
        <time>2021-12-23T16:06:35Z</time>
      </trkpt>
      <trkpt lat="46.50184" lon="0.37778">
        <ele>134.36</ele>
        <time>2021-12-23T16:06:41Z</time>
      </trkpt>
      <trkpt lat="46.50189" lon="0.37771">
        <ele>134.287</ele>
        <time>2021-12-23T16:06:48Z</time>
      </trkpt>
      <trkpt lat="46.50195" lon="0.37764">
        <ele>134.242</ele>
        <time>2021-12-23T16:06:54Z</time>
      </trkpt>
      <trkpt lat="46.502" lon="0.37757">
        <ele>133.843</ele>
        <time>2021-12-23T16:07:01Z</time>
      </trkpt>
      <trkpt lat="46.50205" lon="0.37751">
        <ele>134.074</ele>
        <time>2021-12-23T16:07:09Z</time>
      </trkpt>
      <trkpt lat="46.5021" lon="0.37745">
        <ele>133.85</ele>
        <time>2021-12-23T16:07:15Z</time>
      </trkpt>
      <trkpt lat="46.50215" lon="0.37737">
        <ele>133.671</ele>
        <time>2021-12-23T16:07:21Z</time>
      </trkpt>
      <trkpt lat="46.50221" lon="0.37732">
        <ele>133.879</ele>
        <time>2021-12-23T16:07:27Z</time>
      </trkpt>
      <trkpt lat="46.50226" lon="0.37724">
        <ele>133.511</ele>
        <time>2021-12-23T16:07:35Z</time>
      </trkpt>
      <trkpt lat="46.50232" lon="0.37718">
        <ele>133.978</ele>
        <time>2021-12-23T16:07:42Z</time>
      </trkpt>
      <trkpt lat="46.50238" lon="0.37712">
        <ele>133.781</ele>
        <time>2021-12-23T16:07:48Z</time>
      </trkpt>
      <trkpt lat="46.50243" lon="0.37706">
        <ele>133.588</ele>
        <time>2021-12-23T16:07:53Z</time>
      </trkpt>
      <trkpt lat="46.50248" lon="0.37699">
        <ele>133.522</ele>
        <time>2021-12-23T16:07:59Z</time>
      </trkpt>
      <trkpt lat="46.50254" lon="0.37693">
        <ele>134.277</ele>
        <time>2021-12-23T16:08:06Z</time>
      </trkpt>
      <trkpt lat="46.50259" lon="0.37689">
        <ele>133.385</ele>
        <time>2021-12-23T16:08:12Z</time>
      </trkpt>
      <trkpt lat="46.50264" lon="0.37681">
        <ele>132.726</ele>
        <time>2021-12-23T16:08:18Z</time>
      </trkpt>
      <trkpt lat="46.50269" lon="0.37674">
        <ele>132.205</ele>
        <time>2021-12-23T16:08:25Z</time>
      </trkpt>
      <trkpt lat="46.50274" lon="0.37667">
        <ele>132.969</ele>
        <time>2021-12-23T16:08:32Z</time>
      </trkpt>
      <trkpt lat="46.5028" lon="0.37659">
        <ele>132.389</ele>
        <time>2021-12-23T16:08:40Z</time>
      </trkpt>
      <trkpt lat="46.50286" lon="0.37654">
        <ele>131.99</ele>
        <time>2021-12-23T16:08:45Z</time>
      </trkpt>
      <trkpt lat="46.50291" lon="0.37647">
        <ele>131.79</ele>
        <time>2021-12-23T16:08:51Z</time>
      </trkpt>
      <trkpt lat="46.50297" lon="0.3764">
        <ele>131.416</ele>
        <time>2021-12-23T16:08:58Z</time>
      </trkpt>
      <trkpt lat="46.50303" lon="0.37634">
        <ele>131.317</ele>
        <time>2021-12-23T16:09:04Z</time>
      </trkpt>
      <trkpt lat="46.50308" lon="0.37627">
        <ele>131.471</ele>
        <time>2021-12-23T16:09:11Z</time>
      </trkpt>
      <trkpt lat="46.50314" lon="0.37621">
        <ele>130.372</ele>
        <time>2021-12-23T16:09:17Z</time>
      </trkpt>
      <trkpt lat="46.50318" lon="0.37613">
        <ele>129.955</ele>
        <time>2021-12-23T16:09:23Z</time>
      </trkpt>
      <trkpt lat="46.50322" lon="0.37605">
        <ele>129.579</ele>
        <time>2021-12-23T16:09:30Z</time>
      </trkpt>
      <trkpt lat="46.50327" lon="0.37598">
        <ele>129.194</ele>
        <time>2021-12-23T16:09:36Z</time>
      </trkpt>
      <trkpt lat="46.50331" lon="0.37591">
        <ele>128.751</ele>
        <time>2021-12-23T16:09:42Z</time>
      </trkpt>
      <trkpt lat="46.50334" lon="0.37581">
        <ele>128.409</ele>
        <time>2021-12-23T16:09:50Z</time>
      </trkpt>
      <trkpt lat="46.50337" lon="0.37572">
        <ele>128.414</ele>
        <time>2021-12-23T16:09:56Z</time>
      </trkpt>
      <trkpt lat="46.50341" lon="0.37562">
        <ele>127.832</ele>
        <time>2021-12-23T16:10:04Z</time>
      </trkpt>
      <trkpt lat="46.50346" lon="0.37556">
        <ele>127.407</ele>
        <time>2021-12-23T16:10:10Z</time>
      </trkpt>
      <trkpt lat="46.50349" lon="0.37546">
        <ele>126.889</ele>
        <time>2021-12-23T16:10:17Z</time>
      </trkpt>
      <trkpt lat="46.50353" lon="0.37537">
        <ele>126.425</ele>
        <time>2021-12-23T16:10:23Z</time>
      </trkpt>
      <trkpt lat="46.50356" lon="0.37528">
        <ele>125.923</ele>
        <time>2021-12-23T16:10:30Z</time>
      </trkpt>
      <trkpt lat="46.50361" lon="0.3752">
        <ele>125.681</ele>
        <time>2021-12-23T16:10:37Z</time>
      </trkpt>
      <trkpt lat="46.50365" lon="0.37512">
        <ele>126.262</ele>
        <time>2021-12-23T16:10:44Z</time>
      </trkpt>
      <trkpt lat="46.5037" lon="0.37506">
        <ele>125.979</ele>
        <time>2021-12-23T16:11:12Z</time>
      </trkpt>
      <trkpt lat="46.50373" lon="0.37497">
        <ele>126.022</ele>
        <time>2021-12-23T16:11:21Z</time>
      </trkpt>
      <trkpt lat="46.50377" lon="0.37488">
        <ele>126.583</ele>
        <time>2021-12-23T16:11:30Z</time>
      </trkpt>
      <trkpt lat="46.50379" lon="0.37479">
        <ele>126.662</ele>
        <time>2021-12-23T16:11:38Z</time>
      </trkpt>
      <trkpt lat="46.50383" lon="0.37471">
        <ele>127.46</ele>
        <time>2021-12-23T16:11:45Z</time>
      </trkpt>
      <trkpt lat="46.50387" lon="0.37462">
        <ele>128.144</ele>
        <time>2021-12-23T16:11:52Z</time>
      </trkpt>
      <trkpt lat="46.50389" lon="0.37453">
        <ele>128.339</ele>
        <time>2021-12-23T16:12:00Z</time>
      </trkpt>
      <trkpt lat="46.50392" lon="0.37443">
        <ele>129.176</ele>
        <time>2021-12-23T16:12:11Z</time>
      </trkpt>
      <trkpt lat="46.50393" lon="0.37433">
        <ele>129.698</ele>
        <time>2021-12-23T16:12:18Z</time>
      </trkpt>
      <trkpt lat="46.50397" lon="0.37425">
        <ele>129.956</ele>
        <time>2021-12-23T16:12:25Z</time>
      </trkpt>
      <trkpt lat="46.50401" lon="0.37416">
        <ele>130.309</ele>
        <time>2021-12-23T16:12:30Z</time>
      </trkpt>
      <trkpt lat="46.50405" lon="0.37406">
        <ele>130.426</ele>
        <time>2021-12-23T16:12:38Z</time>
      </trkpt>
      <trkpt lat="46.50408" lon="0.37398">
        <ele>130.858</ele>
        <time>2021-12-23T16:12:46Z</time>
      </trkpt>
      <trkpt lat="46.50411" lon="0.37388">
        <ele>131.265</ele>
        <time>2021-12-23T16:12:53Z</time>
      </trkpt>
      <trkpt lat="46.50415" lon="0.37378">
        <ele>131.128</ele>
        <time>2021-12-23T16:12:59Z</time>
      </trkpt>
      <trkpt lat="46.50419" lon="0.37368">
        <ele>130.892</ele>
        <time>2021-12-23T16:13:04Z</time>
      </trkpt>
      <trkpt lat="46.50421" lon="0.37359">
        <ele>130.424</ele>
        <time>2021-12-23T16:13:12Z</time>
      </trkpt>
      <trkpt lat="46.50423" lon="0.37349">
        <ele>130.981</ele>
        <time>2021-12-23T16:13:18Z</time>
      </trkpt>
      <trkpt lat="46.50426" lon="0.37339">
        <ele>131.224</ele>
        <time>2021-12-23T16:13:26Z</time>
      </trkpt>
      <trkpt lat="46.5043" lon="0.37331">
        <ele>130.744</ele>
        <time>2021-12-23T16:13:32Z</time>
      </trkpt>
      <trkpt lat="46.50433" lon="0.37322">
        <ele>130.744</ele>
        <time>2021-12-23T16:13:37Z</time>
      </trkpt>
      <trkpt lat="46.50436" lon="0.37312">
        <ele>130.402</ele>
        <time>2021-12-23T16:13:44Z</time>
      </trkpt>
      <trkpt lat="46.50438" lon="0.37302">
        <ele>130.854</ele>
        <time>2021-12-23T16:13:50Z</time>
      </trkpt>
      <trkpt lat="46.50441" lon="0.37292">
        <ele>131.448</ele>
        <time>2021-12-23T16:13:56Z</time>
      </trkpt>
      <trkpt lat="46.50443" lon="0.37281">
        <ele>130.91</ele>
        <time>2021-12-23T16:14:02Z</time>
      </trkpt>
      <trkpt lat="46.50447" lon="0.37272">
        <ele>130.629</ele>
        <time>2021-12-23T16:14:09Z</time>
      </trkpt>
      <trkpt lat="46.5045" lon="0.37263">
        <ele>130.373</ele>
        <time>2021-12-23T16:14:15Z</time>
      </trkpt>
      <trkpt lat="46.50451" lon="0.37254">
        <ele>130.957</ele>
        <time>2021-12-23T16:14:22Z</time>
      </trkpt>
      <trkpt lat="46.50454" lon="0.37245">
        <ele>130.799</ele>
        <time>2021-12-23T16:14:29Z</time>
      </trkpt>
      <trkpt lat="46.50456" lon="0.37236">
        <ele>130.7</ele>
        <time>2021-12-23T16:14:34Z</time>
      </trkpt>
      <trkpt lat="46.50459" lon="0.37227">
        <ele>130.451</ele>
        <time>2021-12-23T16:14:40Z</time>
      </trkpt>
      <trkpt lat="46.50462" lon="0.37218">
        <ele>130.796</ele>
        <time>2021-12-23T16:14:46Z</time>
      </trkpt>
      <trkpt lat="46.50465" lon="0.37209">
        <ele>129.944</ele>
        <time>2021-12-23T16:14:51Z</time>
      </trkpt>
      <trkpt lat="46.50469" lon="0.372">
        <ele>129.246</ele>
        <time>2021-12-23T16:14:58Z</time>
      </trkpt>
      <trkpt lat="46.50472" lon="0.37191">
        <ele>128.964</ele>
        <time>2021-12-23T16:15:04Z</time>
      </trkpt>
      <trkpt lat="46.50476" lon="0.37181">
        <ele>129.253</ele>
        <time>2021-12-23T16:15:13Z</time>
      </trkpt>
      <trkpt lat="46.50479" lon="0.37171">
        <ele>129.106</ele>
        <time>2021-12-23T16:15:18Z</time>
      </trkpt>
      <trkpt lat="46.50483" lon="0.37162">
        <ele>128.39</ele>
        <time>2021-12-23T16:15:24Z</time>
      </trkpt>
      <trkpt lat="46.50486" lon="0.37153">
        <ele>128.042</ele>
        <time>2021-12-23T16:15:30Z</time>
      </trkpt>
      <trkpt lat="46.50489" lon="0.37144">
        <ele>128.032</ele>
        <time>2021-12-23T16:15:37Z</time>
      </trkpt>
      <trkpt lat="46.50494" lon="0.37136">
        <ele>127.979</ele>
        <time>2021-12-23T16:15:45Z</time>
      </trkpt>
      <trkpt lat="46.50499" lon="0.37126">
        <ele>127.345</ele>
        <time>2021-12-23T16:15:51Z</time>
      </trkpt>
      <trkpt lat="46.50503" lon="0.37119">
        <ele>126.989</ele>
        <time>2021-12-23T16:15:57Z</time>
      </trkpt>
      <trkpt lat="46.50506" lon="0.37109">
        <ele>126.988</ele>
        <time>2021-12-23T16:16:04Z</time>
      </trkpt>
      <trkpt lat="46.50507" lon="0.37098">
        <ele>127.467</ele>
        <time>2021-12-23T16:16:11Z</time>
      </trkpt>
      <trkpt lat="46.50511" lon="0.3709">
        <ele>127.061</ele>
        <time>2021-12-23T16:16:18Z</time>
      </trkpt>
      <trkpt lat="46.50515" lon="0.37083">
        <ele>127.127</ele>
        <time>2021-12-23T16:16:23Z</time>
      </trkpt>
      <trkpt lat="46.50519" lon="0.37075">
        <ele>127.767</ele>
        <time>2021-12-23T16:16:29Z</time>
      </trkpt>
      <trkpt lat="46.50522" lon="0.37067">
        <ele>128.052</ele>
        <time>2021-12-23T16:16:37Z</time>
      </trkpt>
      <trkpt lat="46.50525" lon="0.37057">
        <ele>128.62</ele>
        <time>2021-12-23T16:16:45Z</time>
      </trkpt>
      <trkpt lat="46.50527" lon="0.37047">
        <ele>128.543</ele>
        <time>2021-12-23T16:16:51Z</time>
      </trkpt>
      <trkpt lat="46.50531" lon="0.3704">
        <ele>129.135</ele>
        <time>2021-12-23T16:16:57Z</time>
      </trkpt>
      <trkpt lat="46.50535" lon="0.37032">
        <ele>128.77</ele>
        <time>2021-12-23T16:17:03Z</time>
      </trkpt>
      <trkpt lat="46.50538" lon="0.37024">
        <ele>129.633</ele>
        <time>2021-12-23T16:17:10Z</time>
      </trkpt>
      <trkpt lat="46.50543" lon="0.37015">
        <ele>129.884</ele>
        <time>2021-12-23T16:17:19Z</time>
      </trkpt>
      <trkpt lat="46.50545" lon="0.37006">
        <ele>130.721</ele>
        <time>2021-12-23T16:17:29Z</time>
      </trkpt>
      <trkpt lat="46.50549" lon="0.36996">
        <ele>131.314</ele>
        <time>2021-12-23T16:17:36Z</time>
      </trkpt>
      <trkpt lat="46.50553" lon="0.36988">
        <ele>131.284</ele>
        <time>2021-12-23T16:17:42Z</time>
      </trkpt>
      <trkpt lat="46.50556" lon="0.36979">
        <ele>131.818</ele>
        <time>2021-12-23T16:17:49Z</time>
      </trkpt>
      <trkpt lat="46.50558" lon="0.3697">
        <ele>132.115</ele>
        <time>2021-12-23T16:17:56Z</time>
      </trkpt>
      <trkpt lat="46.50561" lon="0.36962">
        <ele>133.092</ele>
        <time>2021-12-23T16:18:04Z</time>
      </trkpt>
      <trkpt lat="46.50564" lon="0.36952">
        <ele>132.475</ele>
        <time>2021-12-23T16:18:10Z</time>
      </trkpt>
      <trkpt lat="46.50564" lon="0.36942">
        <ele>132.919</ele>
        <time>2021-12-23T16:18:19Z</time>
      </trkpt>
      <trkpt lat="46.50563" lon="0.36932">
        <ele>132.721</ele>
        <time>2021-12-23T16:18:27Z</time>
      </trkpt>
      <trkpt lat="46.50561" lon="0.36921">
        <ele>132.352</ele>
        <time>2021-12-23T16:18:34Z</time>
      </trkpt>
      <trkpt lat="46.50564" lon="0.36912">
        <ele>132.45</ele>
        <time>2021-12-23T16:18:40Z</time>
      </trkpt>
      <trkpt lat="46.50567" lon="0.36902">
        <ele>133.056</ele>
        <time>2021-12-23T16:18:49Z</time>
      </trkpt>
      <trkpt lat="46.5057" lon="0.36893">
        <ele>132.988</ele>
        <time>2021-12-23T16:18:54Z</time>
      </trkpt>
      <trkpt lat="46.50573" lon="0.36884">
        <ele>132.454</ele>
        <time>2021-12-23T16:19:04Z</time>
      </trkpt>
      <trkpt lat="46.50574" lon="0.36874">
        <ele>131.386</ele>
        <time>2021-12-23T16:19:13Z</time>
      </trkpt>
      <trkpt lat="46.50578" lon="0.36866">
        <ele>131.45</ele>
        <time>2021-12-23T16:19:19Z</time>
      </trkpt>
      <trkpt lat="46.50583" lon="0.36859">
        <ele>131.585</ele>
        <time>2021-12-23T16:19:31Z</time>
      </trkpt>
      <trkpt lat="46.5059" lon="0.3686">
        <ele>132.935</ele>
        <time>2021-12-23T16:19:55Z</time>
      </trkpt>
    </trkseg>
  </trk>
</gpx>